<?xml version="1.0" encoding="UTF-8" standalone="no" ?>
<gpx xmlns="http://www.topografix.com/GPX/1/1" xmlns:xsi="http://www.w3.org/2001/XMLSchema-instance" xsi:schemaLocation="http://www.topografix.com/GPX/1/1 http://www.topografix.com/GPX/1/1/gpx.xsd" version="1.1" creator="VisuGPX - https://www.visugpx.com">
  <metadata>
    <name>Chamouse sous la falaise</name>
  </metadata>
  <trk>
    <name><![CDATA[2021-06-06 16:37:44]]></name>
    <extensions>
      <line xmlns="http://www.topografix.com/GPX/gpx_style/0/2">
        <color>0000FF</color>
        <width>4</width>
      </line>
    </extensions>
    <trkseg>
      <trkpt lat="44.28521" lon="5.54911">
        <ele>1286.3</ele>
        <time>2021-06-06T07:25:03Z</time>
      </trkpt>
      <trkpt lat="44.28518" lon="5.54919">
        <ele>1286.1</ele>
        <time>2021-06-06T07:25:40Z</time>
      </trkpt>
      <trkpt lat="44.28518" lon="5.54917">
        <ele>1285.9</ele>
        <time>2021-06-06T07:26:21Z</time>
      </trkpt>
      <trkpt lat="44.28519" lon="5.54916">
        <ele>1286.1</ele>
        <time>2021-06-06T07:27:06Z</time>
      </trkpt>
      <trkpt lat="44.28518" lon="5.54927">
        <ele>1286.6</ele>
        <time>2021-06-06T07:27:28Z</time>
      </trkpt>
      <trkpt lat="44.28518" lon="5.54932">
        <ele>1287</ele>
        <time>2021-06-06T07:27:54Z</time>
      </trkpt>
      <trkpt lat="44.28517" lon="5.54938">
        <ele>1287.2</ele>
        <time>2021-06-06T07:28:37Z</time>
      </trkpt>
      <trkpt lat="44.2851" lon="5.54947">
        <ele>1286.5</ele>
        <time>2021-06-06T07:28:50Z</time>
      </trkpt>
      <trkpt lat="44.28493" lon="5.54972">
        <ele>1286</ele>
        <time>2021-06-06T07:29:13Z</time>
      </trkpt>
      <trkpt lat="44.28491" lon="5.54974">
        <ele>1285.7</ele>
        <time>2021-06-06T07:29:15Z</time>
      </trkpt>
      <trkpt lat="44.28481" lon="5.55003">
        <ele>1287.1</ele>
        <time>2021-06-06T07:29:36Z</time>
      </trkpt>
      <trkpt lat="44.28473" lon="5.55034">
        <ele>1290.8</ele>
        <time>2021-06-06T07:29:55Z</time>
      </trkpt>
      <trkpt lat="44.28462" lon="5.55066">
        <ele>1295.5</ele>
        <time>2021-06-06T07:30:16Z</time>
      </trkpt>
      <trkpt lat="44.28455" lon="5.55096">
        <ele>1300.2</ele>
        <time>2021-06-06T07:30:35Z</time>
      </trkpt>
      <trkpt lat="44.28442" lon="5.55131">
        <ele>1304.1</ele>
        <time>2021-06-06T07:31:00Z</time>
      </trkpt>
      <trkpt lat="44.28433" lon="5.55157">
        <ele>1306.2</ele>
        <time>2021-06-06T07:31:19Z</time>
      </trkpt>
      <trkpt lat="44.28429" lon="5.55174">
        <ele>1307.5</ele>
        <time>2021-06-06T07:31:33Z</time>
      </trkpt>
      <trkpt lat="44.28415" lon="5.55204">
        <ele>1308.6</ele>
        <time>2021-06-06T07:31:57Z</time>
      </trkpt>
      <trkpt lat="44.28404" lon="5.55225">
        <ele>1310.1</ele>
        <time>2021-06-06T07:32:14Z</time>
      </trkpt>
      <trkpt lat="44.28384" lon="5.55249">
        <ele>1312.3</ele>
        <time>2021-06-06T07:32:38Z</time>
      </trkpt>
      <trkpt lat="44.28373" lon="5.55257">
        <ele>1313.5</ele>
        <time>2021-06-06T07:32:49Z</time>
      </trkpt>
      <trkpt lat="44.28369" lon="5.55261">
        <ele>1314.1</ele>
        <time>2021-06-06T07:32:53Z</time>
      </trkpt>
      <trkpt lat="44.28354" lon="5.55269">
        <ele>1316</ele>
        <time>2021-06-06T07:33:08Z</time>
      </trkpt>
      <trkpt lat="44.28335" lon="5.55275">
        <ele>1317.8</ele>
        <time>2021-06-06T07:33:26Z</time>
      </trkpt>
      <trkpt lat="44.28318" lon="5.55285">
        <ele>1319.2</ele>
        <time>2021-06-06T07:33:44Z</time>
      </trkpt>
      <trkpt lat="44.28299" lon="5.55297">
        <ele>1319.6</ele>
        <time>2021-06-06T07:34:04Z</time>
      </trkpt>
      <trkpt lat="44.28277" lon="5.55316">
        <ele>1317.9</ele>
        <time>2021-06-06T07:34:30Z</time>
      </trkpt>
      <trkpt lat="44.28266" lon="5.55344">
        <ele>1316.2</ele>
        <time>2021-06-06T07:34:52Z</time>
      </trkpt>
      <trkpt lat="44.28262" lon="5.55372">
        <ele>1315</ele>
        <time>2021-06-06T07:35:12Z</time>
      </trkpt>
      <trkpt lat="44.28253" lon="5.55398">
        <ele>1312.4</ele>
        <time>2021-06-06T07:35:35Z</time>
      </trkpt>
      <trkpt lat="44.28244" lon="5.55407">
        <ele>1311.7</ele>
        <time>2021-06-06T07:35:56Z</time>
      </trkpt>
      <trkpt lat="44.28237" lon="5.55413">
        <ele>1311.7</ele>
        <time>2021-06-06T07:36:13Z</time>
      </trkpt>
      <trkpt lat="44.28231" lon="5.55411">
        <ele>1312.3</ele>
        <time>2021-06-06T07:36:44Z</time>
      </trkpt>
      <trkpt lat="44.28226" lon="5.55413">
        <ele>1312.7</ele>
        <time>2021-06-06T07:36:50Z</time>
      </trkpt>
      <trkpt lat="44.28209" lon="5.55416">
        <ele>1313.9</ele>
        <time>2021-06-06T07:37:12Z</time>
      </trkpt>
      <trkpt lat="44.28193" lon="5.55421">
        <ele>1314.9</ele>
        <time>2021-06-06T07:37:39Z</time>
      </trkpt>
      <trkpt lat="44.28178" lon="5.55427">
        <ele>1315.9</ele>
        <time>2021-06-06T07:37:54Z</time>
      </trkpt>
      <trkpt lat="44.28165" lon="5.55433">
        <ele>1317.4</ele>
        <time>2021-06-06T07:38:09Z</time>
      </trkpt>
      <trkpt lat="44.28162" lon="5.55434">
        <ele>1317.9</ele>
        <time>2021-06-06T07:38:12Z</time>
      </trkpt>
      <trkpt lat="44.28144" lon="5.55449">
        <ele>1321.2</ele>
        <time>2021-06-06T07:38:32Z</time>
      </trkpt>
      <trkpt lat="44.28128" lon="5.55461">
        <ele>1324.2</ele>
        <time>2021-06-06T07:38:48Z</time>
      </trkpt>
      <trkpt lat="44.28118" lon="5.55461">
        <ele>1326.2</ele>
        <time>2021-06-06T07:39:15Z</time>
      </trkpt>
      <trkpt lat="44.28111" lon="5.55449">
        <ele>1327.2</ele>
        <time>2021-06-06T07:39:36Z</time>
      </trkpt>
      <trkpt lat="44.2811" lon="5.55446">
        <ele>1327.3</ele>
        <time>2021-06-06T07:39:39Z</time>
      </trkpt>
      <trkpt lat="44.28097" lon="5.55449">
        <ele>1330.8</ele>
        <time>2021-06-06T07:39:55Z</time>
      </trkpt>
      <trkpt lat="44.28097" lon="5.55477">
        <ele>1331.7</ele>
        <time>2021-06-06T07:40:15Z</time>
      </trkpt>
      <trkpt lat="44.281" lon="5.55512">
        <ele>1326.8</ele>
        <time>2021-06-06T07:40:41Z</time>
      </trkpt>
      <trkpt lat="44.28103" lon="5.55533">
        <ele>1321</ele>
        <time>2021-06-06T07:41:02Z</time>
      </trkpt>
      <trkpt lat="44.28089" lon="5.55533">
        <ele>1325.6</ele>
        <time>2021-06-06T07:41:24Z</time>
      </trkpt>
      <trkpt lat="44.28073" lon="5.55516">
        <ele>1334.5</ele>
        <time>2021-06-06T07:41:43Z</time>
      </trkpt>
      <trkpt lat="44.28061" lon="5.55503">
        <ele>1340.7</ele>
        <time>2021-06-06T07:41:58Z</time>
      </trkpt>
      <trkpt lat="44.28047" lon="5.55479">
        <ele>1345.4</ele>
        <time>2021-06-06T07:42:22Z</time>
      </trkpt>
      <trkpt lat="44.28031" lon="5.55466">
        <ele>1347.5</ele>
        <time>2021-06-06T07:42:42Z</time>
      </trkpt>
      <trkpt lat="44.28024" lon="5.55471">
        <ele>1349.5</ele>
        <time>2021-06-06T07:42:51Z</time>
      </trkpt>
      <trkpt lat="44.28006" lon="5.5549">
        <ele>1354.6</ele>
        <time>2021-06-06T07:43:13Z</time>
      </trkpt>
      <trkpt lat="44.28004" lon="5.55495">
        <ele>1355.5</ele>
        <time>2021-06-06T07:43:16Z</time>
      </trkpt>
      <trkpt lat="44.27993" lon="5.5552">
        <ele>1357.4</ele>
        <time>2021-06-06T07:43:33Z</time>
      </trkpt>
      <trkpt lat="44.27986" lon="5.55549">
        <ele>1358.7</ele>
        <time>2021-06-06T07:43:54Z</time>
      </trkpt>
      <trkpt lat="44.27987" lon="5.55583">
        <ele>1353.1</ele>
        <time>2021-06-06T07:44:19Z</time>
      </trkpt>
      <trkpt lat="44.27982" lon="5.55593">
        <ele>1352.4</ele>
        <time>2021-06-06T07:44:45Z</time>
      </trkpt>
      <trkpt lat="44.2798" lon="5.55597">
        <ele>1352.1</ele>
        <time>2021-06-06T07:45:12Z</time>
      </trkpt>
      <trkpt lat="44.27972" lon="5.55583">
        <ele>1360.1</ele>
        <time>2021-06-06T07:45:38Z</time>
      </trkpt>
      <trkpt lat="44.27959" lon="5.55564">
        <ele>1367.5</ele>
        <time>2021-06-06T07:46:01Z</time>
      </trkpt>
      <trkpt lat="44.27955" lon="5.55545">
        <ele>1369</ele>
        <time>2021-06-06T07:46:18Z</time>
      </trkpt>
      <trkpt lat="44.27956" lon="5.55541">
        <ele>1368.4</ele>
        <time>2021-06-06T07:46:47Z</time>
      </trkpt>
      <trkpt lat="44.27949" lon="5.5553">
        <ele>1369.8</ele>
        <time>2021-06-06T07:47:10Z</time>
      </trkpt>
      <trkpt lat="44.27937" lon="5.55517">
        <ele>1371.9</ele>
        <time>2021-06-06T07:47:29Z</time>
      </trkpt>
      <trkpt lat="44.27925" lon="5.55498">
        <ele>1372.5</ele>
        <time>2021-06-06T07:47:52Z</time>
      </trkpt>
      <trkpt lat="44.27907" lon="5.55503">
        <ele>1376.9</ele>
        <time>2021-06-06T07:48:16Z</time>
      </trkpt>
      <trkpt lat="44.27904" lon="5.55531">
        <ele>1381.6</ele>
        <time>2021-06-06T07:48:39Z</time>
      </trkpt>
      <trkpt lat="44.27903" lon="5.55538">
        <ele>1382.6</ele>
        <time>2021-06-06T07:48:45Z</time>
      </trkpt>
      <trkpt lat="44.27897" lon="5.55564">
        <ele>1386</ele>
        <time>2021-06-06T07:49:06Z</time>
      </trkpt>
      <trkpt lat="44.27886" lon="5.55574">
        <ele>1388.7</ele>
        <time>2021-06-06T07:49:26Z</time>
      </trkpt>
      <trkpt lat="44.2787" lon="5.55562">
        <ele>1390.2</ele>
        <time>2021-06-06T07:49:50Z</time>
      </trkpt>
      <trkpt lat="44.27857" lon="5.55543">
        <ele>1389.6</ele>
        <time>2021-06-06T07:50:08Z</time>
      </trkpt>
      <trkpt lat="44.27851" lon="5.55535">
        <ele>1388.9</ele>
        <time>2021-06-06T07:50:20Z</time>
      </trkpt>
      <trkpt lat="44.27831" lon="5.55546">
        <ele>1392.2</ele>
        <time>2021-06-06T07:50:40Z</time>
      </trkpt>
      <trkpt lat="44.27817" lon="5.5556">
        <ele>1394.8</ele>
        <time>2021-06-06T07:51:00Z</time>
      </trkpt>
      <trkpt lat="44.278" lon="5.55576">
        <ele>1398.3</ele>
        <time>2021-06-06T07:51:21Z</time>
      </trkpt>
      <trkpt lat="44.27786" lon="5.55592">
        <ele>1401.6</ele>
        <time>2021-06-06T07:51:42Z</time>
      </trkpt>
      <trkpt lat="44.27772" lon="5.55607">
        <ele>1404.8</ele>
        <time>2021-06-06T07:52:02Z</time>
      </trkpt>
      <trkpt lat="44.27756" lon="5.55621">
        <ele>1407.8</ele>
        <time>2021-06-06T07:52:24Z</time>
      </trkpt>
      <trkpt lat="44.27742" lon="5.55637">
        <ele>1411.6</ele>
        <time>2021-06-06T07:52:46Z</time>
      </trkpt>
      <trkpt lat="44.2773" lon="5.55649">
        <ele>1413.9</ele>
        <time>2021-06-06T07:53:06Z</time>
      </trkpt>
      <trkpt lat="44.27719" lon="5.55662">
        <ele>1416.8</ele>
        <time>2021-06-06T07:53:24Z</time>
      </trkpt>
      <trkpt lat="44.27708" lon="5.55675">
        <ele>1417.9</ele>
        <time>2021-06-06T07:53:42Z</time>
      </trkpt>
      <trkpt lat="44.27698" lon="5.55689">
        <ele>1420.5</ele>
        <time>2021-06-06T07:54:01Z</time>
      </trkpt>
      <trkpt lat="44.27685" lon="5.55707">
        <ele>1421.1</ele>
        <time>2021-06-06T07:54:23Z</time>
      </trkpt>
      <trkpt lat="44.27676" lon="5.55721">
        <ele>1422.8</ele>
        <time>2021-06-06T07:54:41Z</time>
      </trkpt>
      <trkpt lat="44.27672" lon="5.55724">
        <ele>1423</ele>
        <time>2021-06-06T07:55:04Z</time>
      </trkpt>
      <trkpt lat="44.27665" lon="5.55718">
        <ele>1422.8</ele>
        <time>2021-06-06T07:55:26Z</time>
      </trkpt>
      <trkpt lat="44.27655" lon="5.55722">
        <ele>1423.1</ele>
        <time>2021-06-06T07:55:45Z</time>
      </trkpt>
      <trkpt lat="44.27644" lon="5.55736">
        <ele>1422.2</ele>
        <time>2021-06-06T07:56:03Z</time>
      </trkpt>
      <trkpt lat="44.27638" lon="5.55747">
        <ele>1422.9</ele>
        <time>2021-06-06T07:56:23Z</time>
      </trkpt>
      <trkpt lat="44.27636" lon="5.55751">
        <ele>1422.9</ele>
        <time>2021-06-06T07:57:24Z</time>
      </trkpt>
      <trkpt lat="44.27637" lon="5.5575">
        <ele>1423.1</ele>
        <time>2021-06-06T07:59:02Z</time>
      </trkpt>
      <trkpt lat="44.27638" lon="5.5575">
        <ele>1423.1</ele>
        <time>2021-06-06T08:00:18Z</time>
      </trkpt>
      <trkpt lat="44.27636" lon="5.5575">
        <ele>1423.2</ele>
        <time>2021-06-06T08:02:41Z</time>
      </trkpt>
      <trkpt lat="44.27637" lon="5.55751">
        <ele>1422.8</ele>
        <time>2021-06-06T08:04:51Z</time>
      </trkpt>
      <trkpt lat="44.27637" lon="5.5575">
        <ele>1423.1</ele>
        <time>2021-06-06T08:05:52Z</time>
      </trkpt>
      <trkpt lat="44.2763" lon="5.5575">
        <ele>1423.6</ele>
        <time>2021-06-06T08:06:16Z</time>
      </trkpt>
      <trkpt lat="44.27623" lon="5.55752">
        <ele>1423.7</ele>
        <time>2021-06-06T08:06:32Z</time>
      </trkpt>
      <trkpt lat="44.27617" lon="5.55751">
        <ele>1424.4</ele>
        <time>2021-06-06T08:06:50Z</time>
      </trkpt>
      <trkpt lat="44.27607" lon="5.55753">
        <ele>1424.2</ele>
        <time>2021-06-06T08:07:07Z</time>
      </trkpt>
      <trkpt lat="44.27597" lon="5.55762">
        <ele>1423.4</ele>
        <time>2021-06-06T08:07:24Z</time>
      </trkpt>
      <trkpt lat="44.2759" lon="5.5577">
        <ele>1424.2</ele>
        <time>2021-06-06T08:07:38Z</time>
      </trkpt>
      <trkpt lat="44.27579" lon="5.55779">
        <ele>1425.8</ele>
        <time>2021-06-06T08:07:56Z</time>
      </trkpt>
      <trkpt lat="44.27566" lon="5.5578">
        <ele>1425.5</ele>
        <time>2021-06-06T08:08:12Z</time>
      </trkpt>
      <trkpt lat="44.27556" lon="5.55781">
        <ele>1425.5</ele>
        <time>2021-06-06T08:08:28Z</time>
      </trkpt>
      <trkpt lat="44.27548" lon="5.55782">
        <ele>1423.9</ele>
        <time>2021-06-06T08:08:44Z</time>
      </trkpt>
      <trkpt lat="44.27542" lon="5.55782">
        <ele>1422.6</ele>
        <time>2021-06-06T08:08:58Z</time>
      </trkpt>
      <trkpt lat="44.27536" lon="5.55782">
        <ele>1421.2</ele>
        <time>2021-06-06T08:09:15Z</time>
      </trkpt>
      <trkpt lat="44.27526" lon="5.55785">
        <ele>1419.9</ele>
        <time>2021-06-06T08:09:37Z</time>
      </trkpt>
      <trkpt lat="44.27517" lon="5.55788">
        <ele>1418.3</ele>
        <time>2021-06-06T08:09:58Z</time>
      </trkpt>
      <trkpt lat="44.27511" lon="5.55784">
        <ele>1415.5</ele>
        <time>2021-06-06T08:10:25Z</time>
      </trkpt>
      <trkpt lat="44.27509" lon="5.55783">
        <ele>1414.7</ele>
        <time>2021-06-06T08:10:49Z</time>
      </trkpt>
      <trkpt lat="44.27502" lon="5.55781">
        <ele>1412.3</ele>
        <time>2021-06-06T08:11:12Z</time>
      </trkpt>
      <trkpt lat="44.27503" lon="5.55779">
        <ele>1412.1</ele>
        <time>2021-06-06T08:12:00Z</time>
      </trkpt>
      <trkpt lat="44.27498" lon="5.55776">
        <ele>1409.8</ele>
        <time>2021-06-06T08:12:50Z</time>
      </trkpt>
      <trkpt lat="44.27491" lon="5.55775">
        <ele>1407</ele>
        <time>2021-06-06T08:13:10Z</time>
      </trkpt>
      <trkpt lat="44.27488" lon="5.55776">
        <ele>1406.2</ele>
        <time>2021-06-06T08:13:29Z</time>
      </trkpt>
      <trkpt lat="44.27482" lon="5.55781">
        <ele>1405.2</ele>
        <time>2021-06-06T08:14:35Z</time>
      </trkpt>
      <trkpt lat="44.27475" lon="5.55785">
        <ele>1403.4</ele>
        <time>2021-06-06T08:14:51Z</time>
      </trkpt>
      <trkpt lat="44.27468" lon="5.55783">
        <ele>1399.9</ele>
        <time>2021-06-06T08:15:08Z</time>
      </trkpt>
      <trkpt lat="44.2746" lon="5.55788">
        <ele>1396.6</ele>
        <time>2021-06-06T08:15:26Z</time>
      </trkpt>
      <trkpt lat="44.27455" lon="5.55787">
        <ele>1394</ele>
        <time>2021-06-06T08:15:42Z</time>
      </trkpt>
      <trkpt lat="44.27451" lon="5.55785">
        <ele>1391.8</ele>
        <time>2021-06-06T08:16:00Z</time>
      </trkpt>
      <trkpt lat="44.27448" lon="5.55779">
        <ele>1389.8</ele>
        <time>2021-06-06T08:16:20Z</time>
      </trkpt>
      <trkpt lat="44.27443" lon="5.55775">
        <ele>1386.8</ele>
        <time>2021-06-06T08:16:39Z</time>
      </trkpt>
      <trkpt lat="44.2744" lon="5.55773">
        <ele>1385</ele>
        <time>2021-06-06T08:16:56Z</time>
      </trkpt>
      <trkpt lat="44.27437" lon="5.55769">
        <ele>1382.9</ele>
        <time>2021-06-06T08:17:14Z</time>
      </trkpt>
      <trkpt lat="44.27429" lon="5.5577">
        <ele>1378.9</ele>
        <time>2021-06-06T08:17:40Z</time>
      </trkpt>
      <trkpt lat="44.27424" lon="5.55773">
        <ele>1376.5</ele>
        <time>2021-06-06T08:17:58Z</time>
      </trkpt>
      <trkpt lat="44.2742" lon="5.55773">
        <ele>1374.4</ele>
        <time>2021-06-06T08:18:20Z</time>
      </trkpt>
      <trkpt lat="44.27415" lon="5.55773">
        <ele>1371.7</ele>
        <time>2021-06-06T08:18:43Z</time>
      </trkpt>
      <trkpt lat="44.27409" lon="5.55769">
        <ele>1368</ele>
        <time>2021-06-06T08:19:10Z</time>
      </trkpt>
      <trkpt lat="44.27409" lon="5.55774">
        <ele>1368.3</ele>
        <time>2021-06-06T08:19:45Z</time>
      </trkpt>
      <trkpt lat="44.2741" lon="5.55784">
        <ele>1369.4</ele>
        <time>2021-06-06T08:20:32Z</time>
      </trkpt>
      <trkpt lat="44.27414" lon="5.55792">
        <ele>1372</ele>
        <time>2021-06-06T08:20:48Z</time>
      </trkpt>
      <trkpt lat="44.27413" lon="5.558">
        <ele>1371.8</ele>
        <time>2021-06-06T08:21:07Z</time>
      </trkpt>
      <trkpt lat="44.27414" lon="5.55811">
        <ele>1373</ele>
        <time>2021-06-06T08:21:21Z</time>
      </trkpt>
      <trkpt lat="44.27412" lon="5.55832">
        <ele>1373.4</ele>
        <time>2021-06-06T08:21:37Z</time>
      </trkpt>
      <trkpt lat="44.27411" lon="5.55848">
        <ele>1374.1</ele>
        <time>2021-06-06T08:21:54Z</time>
      </trkpt>
      <trkpt lat="44.27409" lon="5.55866">
        <ele>1375</ele>
        <time>2021-06-06T08:22:11Z</time>
      </trkpt>
      <trkpt lat="44.274" lon="5.55879">
        <ele>1372.8</ele>
        <time>2021-06-06T08:22:26Z</time>
      </trkpt>
      <trkpt lat="44.27389" lon="5.55892">
        <ele>1369.6</ele>
        <time>2021-06-06T08:22:44Z</time>
      </trkpt>
      <trkpt lat="44.27374" lon="5.55906">
        <ele>1365.6</ele>
        <time>2021-06-06T08:23:05Z</time>
      </trkpt>
      <trkpt lat="44.27371" lon="5.55908">
        <ele>1364.7</ele>
        <time>2021-06-06T08:23:09Z</time>
      </trkpt>
      <trkpt lat="44.27362" lon="5.55925">
        <ele>1364.2</ele>
        <time>2021-06-06T08:23:27Z</time>
      </trkpt>
      <trkpt lat="44.27351" lon="5.55942">
        <ele>1363.9</ele>
        <time>2021-06-06T08:23:48Z</time>
      </trkpt>
      <trkpt lat="44.27347" lon="5.55949">
        <ele>1364</ele>
        <time>2021-06-06T08:23:55Z</time>
      </trkpt>
      <trkpt lat="44.27332" lon="5.5596">
        <ele>1361.6</ele>
        <time>2021-06-06T08:24:13Z</time>
      </trkpt>
      <trkpt lat="44.27315" lon="5.5597">
        <ele>1359.2</ele>
        <time>2021-06-06T08:24:35Z</time>
      </trkpt>
      <trkpt lat="44.27313" lon="5.55981">
        <ele>1361.4</ele>
        <time>2021-06-06T08:24:55Z</time>
      </trkpt>
      <trkpt lat="44.27303" lon="5.55995">
        <ele>1362.1</ele>
        <time>2021-06-06T08:25:17Z</time>
      </trkpt>
      <trkpt lat="44.2729" lon="5.56019">
        <ele>1365.3</ele>
        <time>2021-06-06T08:25:41Z</time>
      </trkpt>
      <trkpt lat="44.27277" lon="5.56034">
        <ele>1366.2</ele>
        <time>2021-06-06T08:25:56Z</time>
      </trkpt>
      <trkpt lat="44.27272" lon="5.5604">
        <ele>1366.6</ele>
        <time>2021-06-06T08:26:03Z</time>
      </trkpt>
      <trkpt lat="44.27261" lon="5.56052">
        <ele>1367.7</ele>
        <time>2021-06-06T08:26:16Z</time>
      </trkpt>
      <trkpt lat="44.27255" lon="5.56061">
        <ele>1368.1</ele>
        <time>2021-06-06T08:26:35Z</time>
      </trkpt>
      <trkpt lat="44.2726" lon="5.56068">
        <ele>1368.7</ele>
        <time>2021-06-06T08:26:58Z</time>
      </trkpt>
      <trkpt lat="44.27267" lon="5.56075">
        <ele>1368.5</ele>
        <time>2021-06-06T08:27:17Z</time>
      </trkpt>
      <trkpt lat="44.27267" lon="5.5608">
        <ele>1368.3</ele>
        <time>2021-06-06T08:27:31Z</time>
      </trkpt>
      <trkpt lat="44.2726" lon="5.5609">
        <ele>1366.4</ele>
        <time>2021-06-06T08:27:48Z</time>
      </trkpt>
      <trkpt lat="44.27252" lon="5.56097">
        <ele>1365.6</ele>
        <time>2021-06-06T08:28:19Z</time>
      </trkpt>
      <trkpt lat="44.27234" lon="5.56116">
        <ele>1365.2</ele>
        <time>2021-06-06T08:28:43Z</time>
      </trkpt>
      <trkpt lat="44.27214" lon="5.56135">
        <ele>1368</ele>
        <time>2021-06-06T08:29:06Z</time>
      </trkpt>
      <trkpt lat="44.27201" lon="5.56156">
        <ele>1369.3</ele>
        <time>2021-06-06T08:29:26Z</time>
      </trkpt>
      <trkpt lat="44.27186" lon="5.56173">
        <ele>1371.7</ele>
        <time>2021-06-06T08:29:43Z</time>
      </trkpt>
      <trkpt lat="44.27179" lon="5.56184">
        <ele>1371.8</ele>
        <time>2021-06-06T08:29:54Z</time>
      </trkpt>
      <trkpt lat="44.27178" lon="5.56189">
        <ele>1371.6</ele>
        <time>2021-06-06T08:29:59Z</time>
      </trkpt>
      <trkpt lat="44.27177" lon="5.56191">
        <ele>1371.8</ele>
        <time>2021-06-06T08:30:01Z</time>
      </trkpt>
      <trkpt lat="44.27171" lon="5.56204">
        <ele>1372.8</ele>
        <time>2021-06-06T08:30:13Z</time>
      </trkpt>
      <trkpt lat="44.2717" lon="5.56206">
        <ele>1373</ele>
        <time>2021-06-06T08:30:15Z</time>
      </trkpt>
      <trkpt lat="44.27154" lon="5.56228">
        <ele>1375.4</ele>
        <time>2021-06-06T08:30:36Z</time>
      </trkpt>
      <trkpt lat="44.27146" lon="5.56242">
        <ele>1376.3</ele>
        <time>2021-06-06T08:30:52Z</time>
      </trkpt>
      <trkpt lat="44.27133" lon="5.56257">
        <ele>1378.6</ele>
        <time>2021-06-06T08:31:10Z</time>
      </trkpt>
      <trkpt lat="44.2712" lon="5.56271">
        <ele>1381.5</ele>
        <time>2021-06-06T08:31:29Z</time>
      </trkpt>
      <trkpt lat="44.27106" lon="5.56284">
        <ele>1385.1</ele>
        <time>2021-06-06T08:31:47Z</time>
      </trkpt>
      <trkpt lat="44.27096" lon="5.56297">
        <ele>1386.4</ele>
        <time>2021-06-06T08:32:03Z</time>
      </trkpt>
      <trkpt lat="44.27093" lon="5.563">
        <ele>1387.7</ele>
        <time>2021-06-06T08:32:28Z</time>
      </trkpt>
      <trkpt lat="44.27093" lon="5.56303">
        <ele>1387.7</ele>
        <time>2021-06-06T08:33:02Z</time>
      </trkpt>
      <trkpt lat="44.27095" lon="5.56304">
        <ele>1386.7</ele>
        <time>2021-06-06T08:33:48Z</time>
      </trkpt>
      <trkpt lat="44.27094" lon="5.56304">
        <ele>1387.2</ele>
        <time>2021-06-06T08:35:13Z</time>
      </trkpt>
      <trkpt lat="44.27086" lon="5.56314">
        <ele>1390.2</ele>
        <time>2021-06-06T08:35:29Z</time>
      </trkpt>
      <trkpt lat="44.27076" lon="5.56328">
        <ele>1391.1</ele>
        <time>2021-06-06T08:35:47Z</time>
      </trkpt>
      <trkpt lat="44.27061" lon="5.56346">
        <ele>1393.9</ele>
        <time>2021-06-06T08:36:07Z</time>
      </trkpt>
      <trkpt lat="44.27056" lon="5.56358">
        <ele>1395.8</ele>
        <time>2021-06-06T08:36:19Z</time>
      </trkpt>
      <trkpt lat="44.27054" lon="5.56361">
        <ele>1396.2</ele>
        <time>2021-06-06T08:36:22Z</time>
      </trkpt>
      <trkpt lat="44.27038" lon="5.56382">
        <ele>1399</ele>
        <time>2021-06-06T08:36:44Z</time>
      </trkpt>
      <trkpt lat="44.27031" lon="5.56394">
        <ele>1401.4</ele>
        <time>2021-06-06T08:36:57Z</time>
      </trkpt>
      <trkpt lat="44.27022" lon="5.56408">
        <ele>1402.4</ele>
        <time>2021-06-06T08:37:11Z</time>
      </trkpt>
      <trkpt lat="44.27017" lon="5.56418">
        <ele>1403.2</ele>
        <time>2021-06-06T08:37:23Z</time>
      </trkpt>
      <trkpt lat="44.27007" lon="5.56436">
        <ele>1405.7</ele>
        <time>2021-06-06T08:37:44Z</time>
      </trkpt>
      <trkpt lat="44.26995" lon="5.56449">
        <ele>1408.9</ele>
        <time>2021-06-06T08:38:02Z</time>
      </trkpt>
      <trkpt lat="44.26986" lon="5.56461">
        <ele>1410</ele>
        <time>2021-06-06T08:38:18Z</time>
      </trkpt>
      <trkpt lat="44.26971" lon="5.5648">
        <ele>1413.9</ele>
        <time>2021-06-06T08:38:41Z</time>
      </trkpt>
      <trkpt lat="44.26968" lon="5.56483">
        <ele>1413.8</ele>
        <time>2021-06-06T08:38:44Z</time>
      </trkpt>
      <trkpt lat="44.2696" lon="5.56492">
        <ele>1414.2</ele>
        <time>2021-06-06T08:39:03Z</time>
      </trkpt>
      <trkpt lat="44.26952" lon="5.56495">
        <ele>1415.8</ele>
        <time>2021-06-06T08:39:22Z</time>
      </trkpt>
      <trkpt lat="44.26949" lon="5.56493">
        <ele>1416.2</ele>
        <time>2021-06-06T08:39:42Z</time>
      </trkpt>
      <trkpt lat="44.26944" lon="5.56502">
        <ele>1417.7</ele>
        <time>2021-06-06T08:40:08Z</time>
      </trkpt>
      <trkpt lat="44.2693" lon="5.56513">
        <ele>1417.6</ele>
        <time>2021-06-06T08:40:26Z</time>
      </trkpt>
      <trkpt lat="44.26927" lon="5.56516">
        <ele>1418</ele>
        <time>2021-06-06T08:40:41Z</time>
      </trkpt>
      <trkpt lat="44.26919" lon="5.56527">
        <ele>1420.3</ele>
        <time>2021-06-06T08:41:02Z</time>
      </trkpt>
      <trkpt lat="44.26917" lon="5.56528">
        <ele>1420.9</ele>
        <time>2021-06-06T08:41:06Z</time>
      </trkpt>
      <trkpt lat="44.26896" lon="5.56551">
        <ele>1421.1</ele>
        <time>2021-06-06T08:41:31Z</time>
      </trkpt>
      <trkpt lat="44.26874" lon="5.56575">
        <ele>1421.4</ele>
        <time>2021-06-06T08:41:55Z</time>
      </trkpt>
      <trkpt lat="44.26857" lon="5.56595">
        <ele>1421.5</ele>
        <time>2021-06-06T08:42:19Z</time>
      </trkpt>
      <trkpt lat="44.26845" lon="5.56606">
        <ele>1421.5</ele>
        <time>2021-06-06T08:42:35Z</time>
      </trkpt>
      <trkpt lat="44.2684" lon="5.56612">
        <ele>1422.4</ele>
        <time>2021-06-06T08:42:54Z</time>
      </trkpt>
      <trkpt lat="44.2684" lon="5.56613">
        <ele>1422.2</ele>
        <time>2021-06-06T08:42:58Z</time>
      </trkpt>
      <trkpt lat="44.26838" lon="5.56616">
        <ele>1422</ele>
        <time>2021-06-06T08:43:01Z</time>
      </trkpt>
      <trkpt lat="44.26815" lon="5.5664">
        <ele>1422.8</ele>
        <time>2021-06-06T08:43:26Z</time>
      </trkpt>
      <trkpt lat="44.26799" lon="5.56656">
        <ele>1423.9</ele>
        <time>2021-06-06T08:43:46Z</time>
      </trkpt>
      <trkpt lat="44.26781" lon="5.56672">
        <ele>1426.4</ele>
        <time>2021-06-06T08:44:06Z</time>
      </trkpt>
      <trkpt lat="44.26765" lon="5.56687">
        <ele>1427</ele>
        <time>2021-06-06T08:44:26Z</time>
      </trkpt>
      <trkpt lat="44.26766" lon="5.56687">
        <ele>1426.8</ele>
        <time>2021-06-06T08:45:00Z</time>
      </trkpt>
      <trkpt lat="44.26767" lon="5.56687">
        <ele>1426.7</ele>
        <time>2021-06-06T08:45:31Z</time>
      </trkpt>
      <trkpt lat="44.26767" lon="5.56689">
        <ele>1426.6</ele>
        <time>2021-06-06T08:46:25Z</time>
      </trkpt>
      <trkpt lat="44.26768" lon="5.56687">
        <ele>1426.5</ele>
        <time>2021-06-06T08:47:14Z</time>
      </trkpt>
      <trkpt lat="44.26766" lon="5.56695">
        <ele>1426.4</ele>
        <time>2021-06-06T08:48:37Z</time>
      </trkpt>
      <trkpt lat="44.26761" lon="5.56706">
        <ele>1425</ele>
        <time>2021-06-06T08:48:54Z</time>
      </trkpt>
      <trkpt lat="44.26755" lon="5.5672">
        <ele>1423.8</ele>
        <time>2021-06-06T08:49:13Z</time>
      </trkpt>
      <trkpt lat="44.26751" lon="5.56733">
        <ele>1422</ele>
        <time>2021-06-06T08:49:31Z</time>
      </trkpt>
      <trkpt lat="44.26745" lon="5.56747">
        <ele>1420.7</ele>
        <time>2021-06-06T08:49:48Z</time>
      </trkpt>
      <trkpt lat="44.26735" lon="5.56758">
        <ele>1421.9</ele>
        <time>2021-06-06T08:50:08Z</time>
      </trkpt>
      <trkpt lat="44.26729" lon="5.56767">
        <ele>1422</ele>
        <time>2021-06-06T08:50:19Z</time>
      </trkpt>
      <trkpt lat="44.26719" lon="5.5679">
        <ele>1420.3</ele>
        <time>2021-06-06T08:50:44Z</time>
      </trkpt>
      <trkpt lat="44.26713" lon="5.56803">
        <ele>1419.3</ele>
        <time>2021-06-06T08:50:59Z</time>
      </trkpt>
      <trkpt lat="44.26708" lon="5.56816">
        <ele>1418</ele>
        <time>2021-06-06T08:51:14Z</time>
      </trkpt>
      <trkpt lat="44.26704" lon="5.56829">
        <ele>1416.3</ele>
        <time>2021-06-06T08:51:28Z</time>
      </trkpt>
      <trkpt lat="44.26695" lon="5.56849">
        <ele>1414.8</ele>
        <time>2021-06-06T08:51:51Z</time>
      </trkpt>
      <trkpt lat="44.26686" lon="5.56876">
        <ele>1411.7</ele>
        <time>2021-06-06T08:52:16Z</time>
      </trkpt>
      <trkpt lat="44.26682" lon="5.56897">
        <ele>1407.8</ele>
        <time>2021-06-06T08:52:34Z</time>
      </trkpt>
      <trkpt lat="44.26682" lon="5.5691">
        <ele>1403.8</ele>
        <time>2021-06-06T08:52:47Z</time>
      </trkpt>
      <trkpt lat="44.26684" lon="5.56919">
        <ele>1400</ele>
        <time>2021-06-06T08:52:53Z</time>
      </trkpt>
      <trkpt lat="44.26681" lon="5.56946">
        <ele>1393.9</ele>
        <time>2021-06-06T08:53:12Z</time>
      </trkpt>
      <trkpt lat="44.2668" lon="5.56967">
        <ele>1389.5</ele>
        <time>2021-06-06T08:53:29Z</time>
      </trkpt>
      <trkpt lat="44.26679" lon="5.56981">
        <ele>1387.1</ele>
        <time>2021-06-06T08:53:47Z</time>
      </trkpt>
      <trkpt lat="44.26675" lon="5.57006">
        <ele>1384.7</ele>
        <time>2021-06-06T08:54:12Z</time>
      </trkpt>
      <trkpt lat="44.26674" lon="5.57022">
        <ele>1383.1</ele>
        <time>2021-06-06T08:54:28Z</time>
      </trkpt>
      <trkpt lat="44.26677" lon="5.57042">
        <ele>1379.3</ele>
        <time>2021-06-06T08:54:43Z</time>
      </trkpt>
      <trkpt lat="44.26677" lon="5.57052">
        <ele>1378.2</ele>
        <time>2021-06-06T08:54:52Z</time>
      </trkpt>
      <trkpt lat="44.26678" lon="5.57097">
        <ele>1375.6</ele>
        <time>2021-06-06T08:55:21Z</time>
      </trkpt>
      <trkpt lat="44.2668" lon="5.57136">
        <ele>1373.8</ele>
        <time>2021-06-06T08:55:49Z</time>
      </trkpt>
      <trkpt lat="44.26686" lon="5.5716">
        <ele>1370.2</ele>
        <time>2021-06-06T08:56:05Z</time>
      </trkpt>
      <trkpt lat="44.26691" lon="5.57187">
        <ele>1367.4</ele>
        <time>2021-06-06T08:56:31Z</time>
      </trkpt>
      <trkpt lat="44.26697" lon="5.57219">
        <ele>1364.3</ele>
        <time>2021-06-06T08:56:55Z</time>
      </trkpt>
      <trkpt lat="44.26702" lon="5.57243">
        <ele>1360.6</ele>
        <time>2021-06-06T08:57:18Z</time>
      </trkpt>
      <trkpt lat="44.26711" lon="5.57265">
        <ele>1354.9</ele>
        <time>2021-06-06T08:57:39Z</time>
      </trkpt>
      <trkpt lat="44.26716" lon="5.57279">
        <ele>1352.1</ele>
        <time>2021-06-06T08:57:57Z</time>
      </trkpt>
      <trkpt lat="44.26723" lon="5.57293">
        <ele>1351.4</ele>
        <time>2021-06-06T08:58:21Z</time>
      </trkpt>
      <trkpt lat="44.26729" lon="5.57301">
        <ele>1351.3</ele>
        <time>2021-06-06T08:58:30Z</time>
      </trkpt>
      <trkpt lat="44.26734" lon="5.57321">
        <ele>1351.1</ele>
        <time>2021-06-06T08:58:47Z</time>
      </trkpt>
      <trkpt lat="44.26741" lon="5.57339">
        <ele>1352</ele>
        <time>2021-06-06T08:59:02Z</time>
      </trkpt>
      <trkpt lat="44.26745" lon="5.57355">
        <ele>1352.4</ele>
        <time>2021-06-06T08:59:19Z</time>
      </trkpt>
      <trkpt lat="44.26745" lon="5.57362">
        <ele>1352.2</ele>
        <time>2021-06-06T08:59:43Z</time>
      </trkpt>
      <trkpt lat="44.26743" lon="5.57376">
        <ele>1351.3</ele>
        <time>2021-06-06T09:00:16Z</time>
      </trkpt>
      <trkpt lat="44.26742" lon="5.5739">
        <ele>1350.5</ele>
        <time>2021-06-06T09:00:29Z</time>
      </trkpt>
      <trkpt lat="44.26739" lon="5.5742">
        <ele>1347.5</ele>
        <time>2021-06-06T09:00:54Z</time>
      </trkpt>
      <trkpt lat="44.26736" lon="5.57425">
        <ele>1346.1</ele>
        <time>2021-06-06T09:01:00Z</time>
      </trkpt>
      <trkpt lat="44.26729" lon="5.57434">
        <ele>1343.1</ele>
        <time>2021-06-06T09:01:21Z</time>
      </trkpt>
      <trkpt lat="44.26724" lon="5.57442">
        <ele>1340.8</ele>
        <time>2021-06-06T09:01:39Z</time>
      </trkpt>
      <trkpt lat="44.26721" lon="5.57446">
        <ele>1339.2</ele>
        <time>2021-06-06T09:02:02Z</time>
      </trkpt>
      <trkpt lat="44.26717" lon="5.57448">
        <ele>1337.4</ele>
        <time>2021-06-06T09:02:33Z</time>
      </trkpt>
      <trkpt lat="44.26705" lon="5.57456">
        <ele>1332.1</ele>
        <time>2021-06-06T09:02:51Z</time>
      </trkpt>
      <trkpt lat="44.26696" lon="5.57461">
        <ele>1328.7</ele>
        <time>2021-06-06T09:03:04Z</time>
      </trkpt>
      <trkpt lat="44.26688" lon="5.57466">
        <ele>1325.5</ele>
        <time>2021-06-06T09:03:16Z</time>
      </trkpt>
      <trkpt lat="44.26679" lon="5.57472">
        <ele>1322</ele>
        <time>2021-06-06T09:03:29Z</time>
      </trkpt>
      <trkpt lat="44.26672" lon="5.57475">
        <ele>1319.3</ele>
        <time>2021-06-06T09:03:39Z</time>
      </trkpt>
      <trkpt lat="44.2666" lon="5.57482">
        <ele>1314</ele>
        <time>2021-06-06T09:03:56Z</time>
      </trkpt>
      <trkpt lat="44.26659" lon="5.57484">
        <ele>1313.3</ele>
        <time>2021-06-06T09:03:58Z</time>
      </trkpt>
      <trkpt lat="44.26645" lon="5.57494">
        <ele>1306.3</ele>
        <time>2021-06-06T09:04:15Z</time>
      </trkpt>
      <trkpt lat="44.26637" lon="5.57504">
        <ele>1300.9</ele>
        <time>2021-06-06T09:04:30Z</time>
      </trkpt>
      <trkpt lat="44.26653" lon="5.57509">
        <ele>1306</ele>
        <time>2021-06-06T09:04:52Z</time>
      </trkpt>
      <trkpt lat="44.26664" lon="5.57519">
        <ele>1307.5</ele>
        <time>2021-06-06T09:05:07Z</time>
      </trkpt>
      <trkpt lat="44.26676" lon="5.57532">
        <ele>1307</ele>
        <time>2021-06-06T09:05:27Z</time>
      </trkpt>
      <trkpt lat="44.26679" lon="5.57543">
        <ele>1303.5</ele>
        <time>2021-06-06T09:05:41Z</time>
      </trkpt>
      <trkpt lat="44.26671" lon="5.57547">
        <ele>1299.6</ele>
        <time>2021-06-06T09:05:54Z</time>
      </trkpt>
      <trkpt lat="44.26668" lon="5.57553">
        <ele>1296.4</ele>
        <time>2021-06-06T09:06:09Z</time>
      </trkpt>
      <trkpt lat="44.26677" lon="5.57562">
        <ele>1295.2</ele>
        <time>2021-06-06T09:06:24Z</time>
      </trkpt>
      <trkpt lat="44.26682" lon="5.57571">
        <ele>1292.7</ele>
        <time>2021-06-06T09:06:40Z</time>
      </trkpt>
      <trkpt lat="44.26691" lon="5.57577">
        <ele>1292.7</ele>
        <time>2021-06-06T09:06:55Z</time>
      </trkpt>
      <trkpt lat="44.26702" lon="5.57584">
        <ele>1292.6</ele>
        <time>2021-06-06T09:07:11Z</time>
      </trkpt>
      <trkpt lat="44.26703" lon="5.57585">
        <ele>1292.3</ele>
        <time>2021-06-06T09:07:13Z</time>
      </trkpt>
      <trkpt lat="44.2671" lon="5.57602">
        <ele>1285.5</ele>
        <time>2021-06-06T09:07:28Z</time>
      </trkpt>
      <trkpt lat="44.26714" lon="5.57618">
        <ele>1278.2</ele>
        <time>2021-06-06T09:07:44Z</time>
      </trkpt>
      <trkpt lat="44.26715" lon="5.57631">
        <ele>1271.4</ele>
        <time>2021-06-06T09:07:58Z</time>
      </trkpt>
      <trkpt lat="44.26725" lon="5.57638">
        <ele>1269.9</ele>
        <time>2021-06-06T09:08:15Z</time>
      </trkpt>
      <trkpt lat="44.26732" lon="5.57642">
        <ele>1268.7</ele>
        <time>2021-06-06T09:08:28Z</time>
      </trkpt>
      <trkpt lat="44.26741" lon="5.57649">
        <ele>1266.1</ele>
        <time>2021-06-06T09:08:42Z</time>
      </trkpt>
      <trkpt lat="44.26746" lon="5.57653">
        <ele>1264.7</ele>
        <time>2021-06-06T09:08:54Z</time>
      </trkpt>
      <trkpt lat="44.26743" lon="5.57662">
        <ele>1259.3</ele>
        <time>2021-06-06T09:09:11Z</time>
      </trkpt>
      <trkpt lat="44.26755" lon="5.57672">
        <ele>1255.5</ele>
        <time>2021-06-06T09:09:33Z</time>
      </trkpt>
      <trkpt lat="44.26751" lon="5.57686">
        <ele>1247.6</ele>
        <time>2021-06-06T09:09:48Z</time>
      </trkpt>
      <trkpt lat="44.26758" lon="5.57692">
        <ele>1244.9</ele>
        <time>2021-06-06T09:10:02Z</time>
      </trkpt>
      <trkpt lat="44.26766" lon="5.57692">
        <ele>1245.5</ele>
        <time>2021-06-06T09:10:16Z</time>
      </trkpt>
      <trkpt lat="44.26776" lon="5.57701">
        <ele>1241.8</ele>
        <time>2021-06-06T09:10:31Z</time>
      </trkpt>
      <trkpt lat="44.26768" lon="5.57713">
        <ele>1235.6</ele>
        <time>2021-06-06T09:10:47Z</time>
      </trkpt>
      <trkpt lat="44.2676" lon="5.5772">
        <ele>1231.8</ele>
        <time>2021-06-06T09:10:59Z</time>
      </trkpt>
      <trkpt lat="44.26768" lon="5.57727">
        <ele>1229.5</ele>
        <time>2021-06-06T09:11:16Z</time>
      </trkpt>
      <trkpt lat="44.26775" lon="5.57733">
        <ele>1227.9</ele>
        <time>2021-06-06T09:11:30Z</time>
      </trkpt>
      <trkpt lat="44.26783" lon="5.57738">
        <ele>1226.3</ele>
        <time>2021-06-06T09:11:42Z</time>
      </trkpt>
      <trkpt lat="44.26792" lon="5.57741">
        <ele>1225.2</ele>
        <time>2021-06-06T09:11:55Z</time>
      </trkpt>
      <trkpt lat="44.26807" lon="5.57744">
        <ele>1224.2</ele>
        <time>2021-06-06T09:12:11Z</time>
      </trkpt>
      <trkpt lat="44.26806" lon="5.57757">
        <ele>1220</ele>
        <time>2021-06-06T09:12:28Z</time>
      </trkpt>
      <trkpt lat="44.26802" lon="5.57769">
        <ele>1216.4</ele>
        <time>2021-06-06T09:12:42Z</time>
      </trkpt>
      <trkpt lat="44.26807" lon="5.57782">
        <ele>1212.8</ele>
        <time>2021-06-06T09:12:58Z</time>
      </trkpt>
      <trkpt lat="44.26814" lon="5.57793">
        <ele>1209.9</ele>
        <time>2021-06-06T09:13:12Z</time>
      </trkpt>
      <trkpt lat="44.2682" lon="5.57802">
        <ele>1207.5</ele>
        <time>2021-06-06T09:13:24Z</time>
      </trkpt>
      <trkpt lat="44.26827" lon="5.57812">
        <ele>1205.4</ele>
        <time>2021-06-06T09:13:38Z</time>
      </trkpt>
      <trkpt lat="44.26828" lon="5.57823">
        <ele>1203</ele>
        <time>2021-06-06T09:13:51Z</time>
      </trkpt>
      <trkpt lat="44.26825" lon="5.57831">
        <ele>1201.2</ele>
        <time>2021-06-06T09:14:03Z</time>
      </trkpt>
      <trkpt lat="44.26823" lon="5.57841">
        <ele>1199</ele>
        <time>2021-06-06T09:14:16Z</time>
      </trkpt>
      <trkpt lat="44.26821" lon="5.5785">
        <ele>1197</ele>
        <time>2021-06-06T09:14:25Z</time>
      </trkpt>
      <trkpt lat="44.26816" lon="5.57856">
        <ele>1195.5</ele>
        <time>2021-06-06T09:14:31Z</time>
      </trkpt>
      <trkpt lat="44.26818" lon="5.57874">
        <ele>1192.1</ele>
        <time>2021-06-06T09:14:49Z</time>
      </trkpt>
      <trkpt lat="44.26819" lon="5.57885">
        <ele>1190.2</ele>
        <time>2021-06-06T09:15:14Z</time>
      </trkpt>
      <trkpt lat="44.26818" lon="5.57885">
        <ele>1190.1</ele>
        <time>2021-06-06T09:15:38Z</time>
      </trkpt>
      <trkpt lat="44.26826" lon="5.57885">
        <ele>1190.4</ele>
        <time>2021-06-06T09:16:02Z</time>
      </trkpt>
      <trkpt lat="44.26824" lon="5.57881">
        <ele>1191.1</ele>
        <time>2021-06-06T09:16:47Z</time>
      </trkpt>
      <trkpt lat="44.26821" lon="5.57885">
        <ele>1190.3</ele>
        <time>2021-06-06T09:17:19Z</time>
      </trkpt>
      <trkpt lat="44.2682" lon="5.57887">
        <ele>1189.9</ele>
        <time>2021-06-06T09:18:02Z</time>
      </trkpt>
      <trkpt lat="44.26819" lon="5.57883">
        <ele>1190.5</ele>
        <time>2021-06-06T09:18:52Z</time>
      </trkpt>
      <trkpt lat="44.26817" lon="5.57885">
        <ele>1190.1</ele>
        <time>2021-06-06T09:19:19Z</time>
      </trkpt>
      <trkpt lat="44.26802" lon="5.57882">
        <ele>1190.1</ele>
        <time>2021-06-06T09:19:42Z</time>
      </trkpt>
      <trkpt lat="44.26777" lon="5.57873">
        <ele>1190.8</ele>
        <time>2021-06-06T09:20:07Z</time>
      </trkpt>
      <trkpt lat="44.26752" lon="5.57873">
        <ele>1189</ele>
        <time>2021-06-06T09:20:32Z</time>
      </trkpt>
      <trkpt lat="44.26733" lon="5.57858">
        <ele>1189.7</ele>
        <time>2021-06-06T09:20:57Z</time>
      </trkpt>
      <trkpt lat="44.26704" lon="5.57844">
        <ele>1189.4</ele>
        <time>2021-06-06T09:21:26Z</time>
      </trkpt>
      <trkpt lat="44.26678" lon="5.57831">
        <ele>1189.9</ele>
        <time>2021-06-06T09:21:52Z</time>
      </trkpt>
      <trkpt lat="44.26656" lon="5.57815">
        <ele>1192</ele>
        <time>2021-06-06T09:22:16Z</time>
      </trkpt>
      <trkpt lat="44.26626" lon="5.57806">
        <ele>1192.9</ele>
        <time>2021-06-06T09:22:46Z</time>
      </trkpt>
      <trkpt lat="44.26607" lon="5.57798">
        <ele>1194.5</ele>
        <time>2021-06-06T09:23:06Z</time>
      </trkpt>
      <trkpt lat="44.26603" lon="5.57816">
        <ele>1192.2</ele>
        <time>2021-06-06T09:23:26Z</time>
      </trkpt>
      <trkpt lat="44.26587" lon="5.57842">
        <ele>1189.9</ele>
        <time>2021-06-06T09:23:48Z</time>
      </trkpt>
      <trkpt lat="44.2656" lon="5.57845">
        <ele>1191.4</ele>
        <time>2021-06-06T09:24:16Z</time>
      </trkpt>
      <trkpt lat="44.2654" lon="5.57832">
        <ele>1193.7</ele>
        <time>2021-06-06T09:24:43Z</time>
      </trkpt>
      <trkpt lat="44.26526" lon="5.57847">
        <ele>1192.7</ele>
        <time>2021-06-06T09:25:06Z</time>
      </trkpt>
      <trkpt lat="44.26514" lon="5.57846">
        <ele>1193.6</ele>
        <time>2021-06-06T09:25:22Z</time>
      </trkpt>
      <trkpt lat="44.26498" lon="5.57859">
        <ele>1193.4</ele>
        <time>2021-06-06T09:25:45Z</time>
      </trkpt>
      <trkpt lat="44.26478" lon="5.57877">
        <ele>1193.7</ele>
        <time>2021-06-06T09:26:15Z</time>
      </trkpt>
      <trkpt lat="44.26455" lon="5.57882">
        <ele>1196.2</ele>
        <time>2021-06-06T09:26:39Z</time>
      </trkpt>
      <trkpt lat="44.26437" lon="5.57901">
        <ele>1196.8</ele>
        <time>2021-06-06T09:27:04Z</time>
      </trkpt>
      <trkpt lat="44.26425" lon="5.5791">
        <ele>1197.5</ele>
        <time>2021-06-06T09:27:22Z</time>
      </trkpt>
      <trkpt lat="44.26413" lon="5.57912">
        <ele>1199.2</ele>
        <time>2021-06-06T09:27:41Z</time>
      </trkpt>
      <trkpt lat="44.26391" lon="5.57916">
        <ele>1202.7</ele>
        <time>2021-06-06T09:28:05Z</time>
      </trkpt>
      <trkpt lat="44.26383" lon="5.57936">
        <ele>1202</ele>
        <time>2021-06-06T09:28:26Z</time>
      </trkpt>
      <trkpt lat="44.26369" lon="5.5795">
        <ele>1202.5</ele>
        <time>2021-06-06T09:28:49Z</time>
      </trkpt>
      <trkpt lat="44.26348" lon="5.57962">
        <ele>1203.1</ele>
        <time>2021-06-06T09:29:11Z</time>
      </trkpt>
      <trkpt lat="44.2633" lon="5.57963">
        <ele>1205</ele>
        <time>2021-06-06T09:29:33Z</time>
      </trkpt>
      <trkpt lat="44.26329" lon="5.57963">
        <ele>1205</ele>
        <time>2021-06-06T09:29:34Z</time>
      </trkpt>
      <trkpt lat="44.26309" lon="5.57966">
        <ele>1204.5</ele>
        <time>2021-06-06T09:29:56Z</time>
      </trkpt>
      <trkpt lat="44.26299" lon="5.57969">
        <ele>1203.6</ele>
        <time>2021-06-06T09:30:13Z</time>
      </trkpt>
      <trkpt lat="44.26293" lon="5.57975">
        <ele>1201.9</ele>
        <time>2021-06-06T09:30:22Z</time>
      </trkpt>
      <trkpt lat="44.26288" lon="5.57978">
        <ele>1201</ele>
        <time>2021-06-06T09:30:30Z</time>
      </trkpt>
      <trkpt lat="44.26278" lon="5.57982">
        <ele>1199.5</ele>
        <time>2021-06-06T09:30:45Z</time>
      </trkpt>
      <trkpt lat="44.26272" lon="5.57991">
        <ele>1197.5</ele>
        <time>2021-06-06T09:31:04Z</time>
      </trkpt>
      <trkpt lat="44.26266" lon="5.57986">
        <ele>1199.2</ele>
        <time>2021-06-06T09:31:25Z</time>
      </trkpt>
      <trkpt lat="44.26265" lon="5.57986">
        <ele>1199.2</ele>
        <time>2021-06-06T09:32:10Z</time>
      </trkpt>
      <trkpt lat="44.26264" lon="5.57984">
        <ele>1199.8</ele>
        <time>2021-06-06T09:32:31Z</time>
      </trkpt>
      <trkpt lat="44.2626" lon="5.57976">
        <ele>1202.2</ele>
        <time>2021-06-06T09:33:05Z</time>
      </trkpt>
      <trkpt lat="44.2625" lon="5.57965">
        <ele>1206.1</ele>
        <time>2021-06-06T09:33:28Z</time>
      </trkpt>
      <trkpt lat="44.26239" lon="5.57978">
        <ele>1203.2</ele>
        <time>2021-06-06T09:33:51Z</time>
      </trkpt>
      <trkpt lat="44.26217" lon="5.57988">
        <ele>1202.6</ele>
        <time>2021-06-06T09:34:14Z</time>
      </trkpt>
      <trkpt lat="44.26194" lon="5.57988">
        <ele>1205.1</ele>
        <time>2021-06-06T09:34:38Z</time>
      </trkpt>
      <trkpt lat="44.26174" lon="5.57987">
        <ele>1207.9</ele>
        <time>2021-06-06T09:35:01Z</time>
      </trkpt>
      <trkpt lat="44.26158" lon="5.57985">
        <ele>1210.6</ele>
        <time>2021-06-06T09:35:20Z</time>
      </trkpt>
      <trkpt lat="44.26155" lon="5.57999">
        <ele>1208.7</ele>
        <time>2021-06-06T09:35:39Z</time>
      </trkpt>
      <trkpt lat="44.26151" lon="5.58019">
        <ele>1207.7</ele>
        <time>2021-06-06T09:36:04Z</time>
      </trkpt>
      <trkpt lat="44.26137" lon="5.58042">
        <ele>1209.5</ele>
        <time>2021-06-06T09:36:31Z</time>
      </trkpt>
      <trkpt lat="44.26127" lon="5.58055">
        <ele>1211.5</ele>
        <time>2021-06-06T09:36:50Z</time>
      </trkpt>
      <trkpt lat="44.26118" lon="5.58058">
        <ele>1213.9</ele>
        <time>2021-06-06T09:37:08Z</time>
      </trkpt>
      <trkpt lat="44.26109" lon="5.58059">
        <ele>1216.4</ele>
        <time>2021-06-06T09:37:25Z</time>
      </trkpt>
      <trkpt lat="44.261" lon="5.58062">
        <ele>1218.7</ele>
        <time>2021-06-06T09:37:38Z</time>
      </trkpt>
      <trkpt lat="44.26085" lon="5.5806">
        <ele>1222.6</ele>
        <time>2021-06-06T09:38:02Z</time>
      </trkpt>
      <trkpt lat="44.26068" lon="5.58059">
        <ele>1227.9</ele>
        <time>2021-06-06T09:38:27Z</time>
      </trkpt>
      <trkpt lat="44.26057" lon="5.58052">
        <ele>1231.7</ele>
        <time>2021-06-06T09:38:48Z</time>
      </trkpt>
      <trkpt lat="44.26035" lon="5.58057">
        <ele>1237.9</ele>
        <time>2021-06-06T09:39:16Z</time>
      </trkpt>
      <trkpt lat="44.26032" lon="5.58056">
        <ele>1238.8</ele>
        <time>2021-06-06T09:39:21Z</time>
      </trkpt>
      <trkpt lat="44.26015" lon="5.58054">
        <ele>1244.3</ele>
        <time>2021-06-06T09:39:43Z</time>
      </trkpt>
      <trkpt lat="44.26002" lon="5.58051">
        <ele>1248.7</ele>
        <time>2021-06-06T09:40:06Z</time>
      </trkpt>
      <trkpt lat="44.25992" lon="5.58045">
        <ele>1252.1</ele>
        <time>2021-06-06T09:40:39Z</time>
      </trkpt>
      <trkpt lat="44.25976" lon="5.58044">
        <ele>1256.7</ele>
        <time>2021-06-06T09:41:07Z</time>
      </trkpt>
      <trkpt lat="44.25966" lon="5.58038">
        <ele>1259.8</ele>
        <time>2021-06-06T09:41:23Z</time>
      </trkpt>
      <trkpt lat="44.25958" lon="5.58041">
        <ele>1261.6</ele>
        <time>2021-06-06T09:41:55Z</time>
      </trkpt>
      <trkpt lat="44.25959" lon="5.58037">
        <ele>1261.7</ele>
        <time>2021-06-06T09:42:33Z</time>
      </trkpt>
      <trkpt lat="44.2597" lon="5.58028">
        <ele>1259.5</ele>
        <time>2021-06-06T09:42:51Z</time>
      </trkpt>
      <trkpt lat="44.25969" lon="5.58017">
        <ele>1260.9</ele>
        <time>2021-06-06T09:43:09Z</time>
      </trkpt>
      <trkpt lat="44.25962" lon="5.58012">
        <ele>1263.1</ele>
        <time>2021-06-06T09:43:23Z</time>
      </trkpt>
      <trkpt lat="44.2596" lon="5.58012">
        <ele>1263.5</ele>
        <time>2021-06-06T09:43:26Z</time>
      </trkpt>
      <trkpt lat="44.25941" lon="5.58021">
        <ele>1266.5</ele>
        <time>2021-06-06T09:43:53Z</time>
      </trkpt>
      <trkpt lat="44.25927" lon="5.58026">
        <ele>1266.1</ele>
        <time>2021-06-06T09:44:14Z</time>
      </trkpt>
      <trkpt lat="44.2592" lon="5.58021">
        <ele>1266.5</ele>
        <time>2021-06-06T09:44:34Z</time>
      </trkpt>
      <trkpt lat="44.2592" lon="5.58019">
        <ele>1266.6</ele>
        <time>2021-06-06T09:44:55Z</time>
      </trkpt>
      <trkpt lat="44.25917" lon="5.58019">
        <ele>1266.6</ele>
        <time>2021-06-06T09:45:30Z</time>
      </trkpt>
      <trkpt lat="44.2592" lon="5.58022">
        <ele>1266.4</ele>
        <time>2021-06-06T09:46:22Z</time>
      </trkpt>
      <trkpt lat="44.25923" lon="5.58018">
        <ele>1266.7</ele>
        <time>2021-06-06T09:46:47Z</time>
      </trkpt>
      <trkpt lat="44.25916" lon="5.58005">
        <ele>1267.4</ele>
        <time>2021-06-06T09:47:07Z</time>
      </trkpt>
      <trkpt lat="44.25909" lon="5.57987">
        <ele>1266.5</ele>
        <time>2021-06-06T09:47:28Z</time>
      </trkpt>
      <trkpt lat="44.25905" lon="5.57974">
        <ele>1266.2</ele>
        <time>2021-06-06T09:47:49Z</time>
      </trkpt>
      <trkpt lat="44.25905" lon="5.57972">
        <ele>1266.4</ele>
        <time>2021-06-06T09:48:42Z</time>
      </trkpt>
      <trkpt lat="44.25902" lon="5.57969">
        <ele>1265.4</ele>
        <time>2021-06-06T09:49:38Z</time>
      </trkpt>
      <trkpt lat="44.25899" lon="5.57961">
        <ele>1264.8</ele>
        <time>2021-06-06T09:50:07Z</time>
      </trkpt>
      <trkpt lat="44.25901" lon="5.57947">
        <ele>1266.6</ele>
        <time>2021-06-06T09:50:31Z</time>
      </trkpt>
      <trkpt lat="44.25897" lon="5.57927">
        <ele>1267.8</ele>
        <time>2021-06-06T09:50:55Z</time>
      </trkpt>
      <trkpt lat="44.25891" lon="5.57913">
        <ele>1268.1</ele>
        <time>2021-06-06T09:51:16Z</time>
      </trkpt>
      <trkpt lat="44.25891" lon="5.57912">
        <ele>1268.3</ele>
        <time>2021-06-06T09:51:32Z</time>
      </trkpt>
      <trkpt lat="44.25888" lon="5.57906">
        <ele>1268.1</ele>
        <time>2021-06-06T09:51:56Z</time>
      </trkpt>
      <trkpt lat="44.25875" lon="5.57891">
        <ele>1265.1</ele>
        <time>2021-06-06T09:52:16Z</time>
      </trkpt>
      <trkpt lat="44.2586" lon="5.57871">
        <ele>1263.4</ele>
        <time>2021-06-06T09:52:41Z</time>
      </trkpt>
      <trkpt lat="44.25851" lon="5.57847">
        <ele>1263.3</ele>
        <time>2021-06-06T09:53:05Z</time>
      </trkpt>
      <trkpt lat="44.25858" lon="5.5781">
        <ele>1270.3</ele>
        <time>2021-06-06T09:53:34Z</time>
      </trkpt>
      <trkpt lat="44.2585" lon="5.57768">
        <ele>1271.2</ele>
        <time>2021-06-06T09:54:01Z</time>
      </trkpt>
      <trkpt lat="44.25831" lon="5.57743">
        <ele>1268.8</ele>
        <time>2021-06-06T09:54:27Z</time>
      </trkpt>
      <trkpt lat="44.25814" lon="5.57713">
        <ele>1270.7</ele>
        <time>2021-06-06T09:54:53Z</time>
      </trkpt>
      <trkpt lat="44.25793" lon="5.57703">
        <ele>1268.9</ele>
        <time>2021-06-06T09:55:16Z</time>
      </trkpt>
      <trkpt lat="44.25765" lon="5.57694">
        <ele>1266.3</ele>
        <time>2021-06-06T09:55:44Z</time>
      </trkpt>
      <trkpt lat="44.25745" lon="5.57676">
        <ele>1267.3</ele>
        <time>2021-06-06T09:56:09Z</time>
      </trkpt>
      <trkpt lat="44.25718" lon="5.5765">
        <ele>1268.7</ele>
        <time>2021-06-06T09:56:39Z</time>
      </trkpt>
      <trkpt lat="44.25695" lon="5.57637">
        <ele>1269.4</ele>
        <time>2021-06-06T09:57:08Z</time>
      </trkpt>
      <trkpt lat="44.25675" lon="5.57636">
        <ele>1268.1</ele>
        <time>2021-06-06T09:57:35Z</time>
      </trkpt>
      <trkpt lat="44.2565" lon="5.57628">
        <ele>1268</ele>
        <time>2021-06-06T09:58:02Z</time>
      </trkpt>
      <trkpt lat="44.25624" lon="5.5763">
        <ele>1266.2</ele>
        <time>2021-06-06T09:58:25Z</time>
      </trkpt>
      <trkpt lat="44.25593" lon="5.57645">
        <ele>1261.2</ele>
        <time>2021-06-06T09:58:55Z</time>
      </trkpt>
      <trkpt lat="44.25569" lon="5.57651">
        <ele>1256.9</ele>
        <time>2021-06-06T09:59:19Z</time>
      </trkpt>
      <trkpt lat="44.25542" lon="5.57649">
        <ele>1252.3</ele>
        <time>2021-06-06T09:59:41Z</time>
      </trkpt>
      <trkpt lat="44.25524" lon="5.57653">
        <ele>1248.3</ele>
        <time>2021-06-06T09:59:57Z</time>
      </trkpt>
      <trkpt lat="44.25511" lon="5.57646">
        <ele>1247</ele>
        <time>2021-06-06T10:00:07Z</time>
      </trkpt>
      <trkpt lat="44.25503" lon="5.57634">
        <ele>1247.4</ele>
        <time>2021-06-06T10:00:18Z</time>
      </trkpt>
      <trkpt lat="44.25483" lon="5.57606">
        <ele>1248.2</ele>
        <time>2021-06-06T10:00:44Z</time>
      </trkpt>
      <trkpt lat="44.25471" lon="5.57585">
        <ele>1249.5</ele>
        <time>2021-06-06T10:01:02Z</time>
      </trkpt>
      <trkpt lat="44.25446" lon="5.57559">
        <ele>1248.8</ele>
        <time>2021-06-06T10:01:31Z</time>
      </trkpt>
      <trkpt lat="44.25422" lon="5.57532">
        <ele>1249.2</ele>
        <time>2021-06-06T10:02:00Z</time>
      </trkpt>
      <trkpt lat="44.254" lon="5.57506">
        <ele>1249.1</ele>
        <time>2021-06-06T10:02:26Z</time>
      </trkpt>
      <trkpt lat="44.25382" lon="5.57471">
        <ele>1250.9</ele>
        <time>2021-06-06T10:02:55Z</time>
      </trkpt>
      <trkpt lat="44.25361" lon="5.5743">
        <ele>1253.6</ele>
        <time>2021-06-06T10:03:27Z</time>
      </trkpt>
      <trkpt lat="44.2534" lon="5.57403">
        <ele>1253.5</ele>
        <time>2021-06-06T10:03:52Z</time>
      </trkpt>
      <trkpt lat="44.25318" lon="5.5738">
        <ele>1253.8</ele>
        <time>2021-06-06T10:04:17Z</time>
      </trkpt>
      <trkpt lat="44.25289" lon="5.57358">
        <ele>1252.3</ele>
        <time>2021-06-06T10:04:44Z</time>
      </trkpt>
      <trkpt lat="44.25278" lon="5.57355">
        <ele>1250.5</ele>
        <time>2021-06-06T10:05:08Z</time>
      </trkpt>
      <trkpt lat="44.25274" lon="5.57357">
        <ele>1249.6</ele>
        <time>2021-06-06T10:05:42Z</time>
      </trkpt>
      <trkpt lat="44.25278" lon="5.57344">
        <ele>1251.3</ele>
        <time>2021-06-06T10:06:10Z</time>
      </trkpt>
      <trkpt lat="44.25285" lon="5.57353">
        <ele>1252</ele>
        <time>2021-06-06T10:06:34Z</time>
      </trkpt>
      <trkpt lat="44.25284" lon="5.57365">
        <ele>1250.5</ele>
        <time>2021-06-06T10:06:56Z</time>
      </trkpt>
      <trkpt lat="44.25278" lon="5.57349">
        <ele>1250.9</ele>
        <time>2021-06-06T10:07:13Z</time>
      </trkpt>
      <trkpt lat="44.25266" lon="5.57319">
        <ele>1250.7</ele>
        <time>2021-06-06T10:07:39Z</time>
      </trkpt>
      <trkpt lat="44.25268" lon="5.57292">
        <ele>1252.4</ele>
        <time>2021-06-06T10:07:59Z</time>
      </trkpt>
      <trkpt lat="44.2528" lon="5.57267">
        <ele>1256.3</ele>
        <time>2021-06-06T10:08:21Z</time>
      </trkpt>
      <trkpt lat="44.25279" lon="5.57232">
        <ele>1258.6</ele>
        <time>2021-06-06T10:08:48Z</time>
      </trkpt>
      <trkpt lat="44.25282" lon="5.57205">
        <ele>1261.5</ele>
        <time>2021-06-06T10:09:09Z</time>
      </trkpt>
      <trkpt lat="44.25285" lon="5.57183">
        <ele>1263.5</ele>
        <time>2021-06-06T10:09:32Z</time>
      </trkpt>
      <trkpt lat="44.2528" lon="5.57144">
        <ele>1262.7</ele>
        <time>2021-06-06T10:10:00Z</time>
      </trkpt>
      <trkpt lat="44.25285" lon="5.57117">
        <ele>1265.3</ele>
        <time>2021-06-06T10:10:26Z</time>
      </trkpt>
      <trkpt lat="44.25285" lon="5.57095">
        <ele>1266.2</ele>
        <time>2021-06-06T10:10:47Z</time>
      </trkpt>
      <trkpt lat="44.25284" lon="5.57056">
        <ele>1267.2</ele>
        <time>2021-06-06T10:11:17Z</time>
      </trkpt>
      <trkpt lat="44.25279" lon="5.57018">
        <ele>1265.1</ele>
        <time>2021-06-06T10:11:44Z</time>
      </trkpt>
      <trkpt lat="44.25279" lon="5.57005">
        <ele>1264.7</ele>
        <time>2021-06-06T10:11:53Z</time>
      </trkpt>
      <trkpt lat="44.25277" lon="5.56981">
        <ele>1263.7</ele>
        <time>2021-06-06T10:12:12Z</time>
      </trkpt>
      <trkpt lat="44.25282" lon="5.56957">
        <ele>1265.5</ele>
        <time>2021-06-06T10:12:37Z</time>
      </trkpt>
      <trkpt lat="44.2529" lon="5.56924">
        <ele>1268.7</ele>
        <time>2021-06-06T10:13:02Z</time>
      </trkpt>
      <trkpt lat="44.25294" lon="5.56887">
        <ele>1271.5</ele>
        <time>2021-06-06T10:13:31Z</time>
      </trkpt>
      <trkpt lat="44.25296" lon="5.56834">
        <ele>1273.2</ele>
        <time>2021-06-06T10:13:59Z</time>
      </trkpt>
      <trkpt lat="44.25306" lon="5.56797">
        <ele>1274.5</ele>
        <time>2021-06-06T10:14:25Z</time>
      </trkpt>
      <trkpt lat="44.25309" lon="5.56789">
        <ele>1274.9</ele>
        <time>2021-06-06T10:14:32Z</time>
      </trkpt>
      <trkpt lat="44.25309" lon="5.56781">
        <ele>1274.3</ele>
        <time>2021-06-06T10:14:40Z</time>
      </trkpt>
      <trkpt lat="44.25326" lon="5.56738">
        <ele>1276.8</ele>
        <time>2021-06-06T10:15:10Z</time>
      </trkpt>
      <trkpt lat="44.25343" lon="5.56711">
        <ele>1280.3</ele>
        <time>2021-06-06T10:15:37Z</time>
      </trkpt>
      <trkpt lat="44.25356" lon="5.56682">
        <ele>1282.5</ele>
        <time>2021-06-06T10:16:04Z</time>
      </trkpt>
      <trkpt lat="44.25373" lon="5.56649">
        <ele>1286.4</ele>
        <time>2021-06-06T10:16:32Z</time>
      </trkpt>
      <trkpt lat="44.25389" lon="5.56623">
        <ele>1289.3</ele>
        <time>2021-06-06T10:16:56Z</time>
      </trkpt>
      <trkpt lat="44.25408" lon="5.56593">
        <ele>1292.5</ele>
        <time>2021-06-06T10:17:26Z</time>
      </trkpt>
      <trkpt lat="44.25421" lon="5.56557">
        <ele>1291.9</ele>
        <time>2021-06-06T10:17:58Z</time>
      </trkpt>
      <trkpt lat="44.25437" lon="5.56508">
        <ele>1293.4</ele>
        <time>2021-06-06T10:18:26Z</time>
      </trkpt>
      <trkpt lat="44.25449" lon="5.56465">
        <ele>1296.6</ele>
        <time>2021-06-06T10:18:58Z</time>
      </trkpt>
      <trkpt lat="44.25451" lon="5.56456">
        <ele>1296.7</ele>
        <time>2021-06-06T10:19:26Z</time>
      </trkpt>
      <trkpt lat="44.25451" lon="5.5645">
        <ele>1296.1</ele>
        <time>2021-06-06T10:19:41Z</time>
      </trkpt>
      <trkpt lat="44.25456" lon="5.56449">
        <ele>1298.7</ele>
        <time>2021-06-06T10:20:45Z</time>
      </trkpt>
      <trkpt lat="44.25457" lon="5.56451">
        <ele>1299.4</ele>
        <time>2021-06-06T10:21:39Z</time>
      </trkpt>
      <trkpt lat="44.25457" lon="5.56439">
        <ele>1298.4</ele>
        <time>2021-06-06T10:22:11Z</time>
      </trkpt>
      <trkpt lat="44.25462" lon="5.56424">
        <ele>1300</ele>
        <time>2021-06-06T10:22:32Z</time>
      </trkpt>
      <trkpt lat="44.25471" lon="5.56401">
        <ele>1302.6</ele>
        <time>2021-06-06T10:22:56Z</time>
      </trkpt>
      <trkpt lat="44.25478" lon="5.56384">
        <ele>1305</ele>
        <time>2021-06-06T10:23:15Z</time>
      </trkpt>
      <trkpt lat="44.25483" lon="5.56364">
        <ele>1306.3</ele>
        <time>2021-06-06T10:23:38Z</time>
      </trkpt>
      <trkpt lat="44.2548" lon="5.56347">
        <ele>1302.5</ele>
        <time>2021-06-06T10:23:58Z</time>
      </trkpt>
      <trkpt lat="44.25476" lon="5.5634">
        <ele>1299.2</ele>
        <time>2021-06-06T10:25:11Z</time>
      </trkpt>
      <trkpt lat="44.2548" lon="5.56328">
        <ele>1300.3</ele>
        <time>2021-06-06T10:25:51Z</time>
      </trkpt>
      <trkpt lat="44.25485" lon="5.56308">
        <ele>1301.1</ele>
        <time>2021-06-06T10:26:07Z</time>
      </trkpt>
      <trkpt lat="44.25491" lon="5.56274">
        <ele>1299.8</ele>
        <time>2021-06-06T10:26:32Z</time>
      </trkpt>
      <trkpt lat="44.25497" lon="5.56247">
        <ele>1299.1</ele>
        <time>2021-06-06T10:26:53Z</time>
      </trkpt>
      <trkpt lat="44.25508" lon="5.56228">
        <ele>1303.7</ele>
        <time>2021-06-06T10:27:16Z</time>
      </trkpt>
      <trkpt lat="44.25517" lon="5.56204">
        <ele>1308.1</ele>
        <time>2021-06-06T10:27:37Z</time>
      </trkpt>
      <trkpt lat="44.25524" lon="5.56182">
        <ele>1311.6</ele>
        <time>2021-06-06T10:27:55Z</time>
      </trkpt>
      <trkpt lat="44.25531" lon="5.56164">
        <ele>1314.9</ele>
        <time>2021-06-06T10:28:11Z</time>
      </trkpt>
      <trkpt lat="44.25538" lon="5.56148">
        <ele>1318</ele>
        <time>2021-06-06T10:28:29Z</time>
      </trkpt>
      <trkpt lat="44.25545" lon="5.5612">
        <ele>1319.7</ele>
        <time>2021-06-06T10:28:54Z</time>
      </trkpt>
      <trkpt lat="44.25556" lon="5.56089">
        <ele>1324.7</ele>
        <time>2021-06-06T10:29:20Z</time>
      </trkpt>
      <trkpt lat="44.25559" lon="5.56068">
        <ele>1325.4</ele>
        <time>2021-06-06T10:29:37Z</time>
      </trkpt>
      <trkpt lat="44.25559" lon="5.56042">
        <ele>1324.5</ele>
        <time>2021-06-06T10:29:56Z</time>
      </trkpt>
      <trkpt lat="44.25554" lon="5.56019">
        <ele>1321</ele>
        <time>2021-06-06T10:30:15Z</time>
      </trkpt>
      <trkpt lat="44.25554" lon="5.56003">
        <ele>1321</ele>
        <time>2021-06-06T10:30:30Z</time>
      </trkpt>
      <trkpt lat="44.25556" lon="5.5597">
        <ele>1323.2</ele>
        <time>2021-06-06T10:30:52Z</time>
      </trkpt>
      <trkpt lat="44.25558" lon="5.55949">
        <ele>1324.2</ele>
        <time>2021-06-06T10:31:09Z</time>
      </trkpt>
      <trkpt lat="44.25562" lon="5.55917">
        <ele>1326</ele>
        <time>2021-06-06T10:31:33Z</time>
      </trkpt>
      <trkpt lat="44.25568" lon="5.55883">
        <ele>1328.6</ele>
        <time>2021-06-06T10:31:56Z</time>
      </trkpt>
      <trkpt lat="44.2558" lon="5.55857">
        <ele>1333.2</ele>
        <time>2021-06-06T10:32:22Z</time>
      </trkpt>
      <trkpt lat="44.25589" lon="5.55837">
        <ele>1335.1</ele>
        <time>2021-06-06T10:32:39Z</time>
      </trkpt>
      <trkpt lat="44.25604" lon="5.55807">
        <ele>1337.8</ele>
        <time>2021-06-06T10:33:00Z</time>
      </trkpt>
      <trkpt lat="44.25607" lon="5.558">
        <ele>1338.1</ele>
        <time>2021-06-06T10:33:05Z</time>
      </trkpt>
      <trkpt lat="44.25612" lon="5.55788">
        <ele>1338.3</ele>
        <time>2021-06-06T10:33:11Z</time>
      </trkpt>
      <trkpt lat="44.25628" lon="5.55762">
        <ele>1338.9</ele>
        <time>2021-06-06T10:33:31Z</time>
      </trkpt>
      <trkpt lat="44.2564" lon="5.55747">
        <ele>1339.9</ele>
        <time>2021-06-06T10:33:45Z</time>
      </trkpt>
      <trkpt lat="44.25653" lon="5.55728">
        <ele>1340.2</ele>
        <time>2021-06-06T10:34:01Z</time>
      </trkpt>
      <trkpt lat="44.25663" lon="5.55709">
        <ele>1340.3</ele>
        <time>2021-06-06T10:34:14Z</time>
      </trkpt>
      <trkpt lat="44.25674" lon="5.55691">
        <ele>1341</ele>
        <time>2021-06-06T10:34:29Z</time>
      </trkpt>
      <trkpt lat="44.25684" lon="5.55669">
        <ele>1340.7</ele>
        <time>2021-06-06T10:34:46Z</time>
      </trkpt>
      <trkpt lat="44.25693" lon="5.55649">
        <ele>1340.5</ele>
        <time>2021-06-06T10:35:01Z</time>
      </trkpt>
      <trkpt lat="44.25706" lon="5.55628">
        <ele>1340.7</ele>
        <time>2021-06-06T10:35:20Z</time>
      </trkpt>
      <trkpt lat="44.25717" lon="5.55614">
        <ele>1340.7</ele>
        <time>2021-06-06T10:35:35Z</time>
      </trkpt>
      <trkpt lat="44.25729" lon="5.55602">
        <ele>1341.5</ele>
        <time>2021-06-06T10:35:50Z</time>
      </trkpt>
      <trkpt lat="44.25735" lon="5.55598">
        <ele>1341.9</ele>
        <time>2021-06-06T10:35:55Z</time>
      </trkpt>
      <trkpt lat="44.25737" lon="5.55596">
        <ele>1342</ele>
        <time>2021-06-06T10:35:57Z</time>
      </trkpt>
      <trkpt lat="44.25742" lon="5.55587">
        <ele>1341.7</ele>
        <time>2021-06-06T10:36:04Z</time>
      </trkpt>
      <trkpt lat="44.25747" lon="5.55581">
        <ele>1341.7</ele>
        <time>2021-06-06T10:36:11Z</time>
      </trkpt>
      <trkpt lat="44.25755" lon="5.55568">
        <ele>1341.9</ele>
        <time>2021-06-06T10:36:26Z</time>
      </trkpt>
      <trkpt lat="44.25757" lon="5.55559">
        <ele>1341.7</ele>
        <time>2021-06-06T10:36:50Z</time>
      </trkpt>
      <trkpt lat="44.25754" lon="5.55555">
        <ele>1341.3</ele>
        <time>2021-06-06T10:37:25Z</time>
      </trkpt>
      <trkpt lat="44.25755" lon="5.55557">
        <ele>1341.4</ele>
        <time>2021-06-06T10:37:40Z</time>
      </trkpt>
      <trkpt lat="44.25753" lon="5.55564">
        <ele>1341.6</ele>
        <time>2021-06-06T10:38:56Z</time>
      </trkpt>
      <trkpt lat="44.25755" lon="5.5556">
        <ele>1341.5</ele>
        <time>2021-06-06T10:39:33Z</time>
      </trkpt>
      <trkpt lat="44.25759" lon="5.55558">
        <ele>1341.8</ele>
        <time>2021-06-06T10:40:36Z</time>
      </trkpt>
      <trkpt lat="44.25765" lon="5.55555">
        <ele>1342.1</ele>
        <time>2021-06-06T10:41:33Z</time>
      </trkpt>
      <trkpt lat="44.25785" lon="5.55533">
        <ele>1342.5</ele>
        <time>2021-06-06T10:41:58Z</time>
      </trkpt>
      <trkpt lat="44.25803" lon="5.55518">
        <ele>1342.2</ele>
        <time>2021-06-06T10:42:17Z</time>
      </trkpt>
      <trkpt lat="44.25818" lon="5.55505">
        <ele>1343.2</ele>
        <time>2021-06-06T10:42:35Z</time>
      </trkpt>
      <trkpt lat="44.25826" lon="5.55498">
        <ele>1343.8</ele>
        <time>2021-06-06T10:42:46Z</time>
      </trkpt>
      <trkpt lat="44.25835" lon="5.55492">
        <ele>1344.9</ele>
        <time>2021-06-06T10:43:03Z</time>
      </trkpt>
      <trkpt lat="44.25843" lon="5.55485">
        <ele>1346.1</ele>
        <time>2021-06-06T10:43:19Z</time>
      </trkpt>
      <trkpt lat="44.25848" lon="5.55486">
        <ele>1347.4</ele>
        <time>2021-06-06T10:43:48Z</time>
      </trkpt>
      <trkpt lat="44.25852" lon="5.55492">
        <ele>1349.2</ele>
        <time>2021-06-06T10:44:09Z</time>
      </trkpt>
      <trkpt lat="44.25856" lon="5.55502">
        <ele>1351.8</ele>
        <time>2021-06-06T10:44:24Z</time>
      </trkpt>
      <trkpt lat="44.2586" lon="5.5551">
        <ele>1354.1</ele>
        <time>2021-06-06T10:44:39Z</time>
      </trkpt>
      <trkpt lat="44.25867" lon="5.55515">
        <ele>1356.7</ele>
        <time>2021-06-06T10:44:57Z</time>
      </trkpt>
      <trkpt lat="44.25874" lon="5.55516">
        <ele>1358.6</ele>
        <time>2021-06-06T10:45:18Z</time>
      </trkpt>
      <trkpt lat="44.25878" lon="5.55521">
        <ele>1360.6</ele>
        <time>2021-06-06T10:45:39Z</time>
      </trkpt>
      <trkpt lat="44.25865" lon="5.55544">
        <ele>1360.7</ele>
        <time>2021-06-06T10:46:06Z</time>
      </trkpt>
      <trkpt lat="44.25866" lon="5.5556">
        <ele>1363.5</ele>
        <time>2021-06-06T10:46:28Z</time>
      </trkpt>
      <trkpt lat="44.25868" lon="5.55573">
        <ele>1366.2</ele>
        <time>2021-06-06T10:46:49Z</time>
      </trkpt>
      <trkpt lat="44.2587" lon="5.55579">
        <ele>1368.1</ele>
        <time>2021-06-06T10:47:07Z</time>
      </trkpt>
      <trkpt lat="44.25875" lon="5.55585">
        <ele>1371.6</ele>
        <time>2021-06-06T10:47:26Z</time>
      </trkpt>
      <trkpt lat="44.25881" lon="5.55592">
        <ele>1375.6</ele>
        <time>2021-06-06T10:47:45Z</time>
      </trkpt>
      <trkpt lat="44.25884" lon="5.55597">
        <ele>1377.7</ele>
        <time>2021-06-06T10:48:09Z</time>
      </trkpt>
      <trkpt lat="44.2589" lon="5.55609">
        <ele>1382.2</ele>
        <time>2021-06-06T10:48:37Z</time>
      </trkpt>
      <trkpt lat="44.25893" lon="5.55619">
        <ele>1384.8</ele>
        <time>2021-06-06T10:48:56Z</time>
      </trkpt>
      <trkpt lat="44.25895" lon="5.55624">
        <ele>1386.5</ele>
        <time>2021-06-06T10:49:12Z</time>
      </trkpt>
      <trkpt lat="44.25898" lon="5.55635">
        <ele>1389.6</ele>
        <time>2021-06-06T10:49:31Z</time>
      </trkpt>
      <trkpt lat="44.259" lon="5.55639">
        <ele>1391.2</ele>
        <time>2021-06-06T10:49:50Z</time>
      </trkpt>
      <trkpt lat="44.25903" lon="5.55643">
        <ele>1393.1</ele>
        <time>2021-06-06T10:50:04Z</time>
      </trkpt>
      <trkpt lat="44.25907" lon="5.5565">
        <ele>1395.9</ele>
        <time>2021-06-06T10:50:23Z</time>
      </trkpt>
      <trkpt lat="44.25912" lon="5.55656">
        <ele>1399.5</ele>
        <time>2021-06-06T10:50:43Z</time>
      </trkpt>
      <trkpt lat="44.25913" lon="5.5566">
        <ele>1400.7</ele>
        <time>2021-06-06T10:51:08Z</time>
      </trkpt>
      <trkpt lat="44.25916" lon="5.55672">
        <ele>1404.1</ele>
        <time>2021-06-06T10:51:29Z</time>
      </trkpt>
      <trkpt lat="44.25919" lon="5.55684">
        <ele>1406.6</ele>
        <time>2021-06-06T10:51:48Z</time>
      </trkpt>
      <trkpt lat="44.25926" lon="5.5569">
        <ele>1409.4</ele>
        <time>2021-06-06T10:52:06Z</time>
      </trkpt>
      <trkpt lat="44.25933" lon="5.55698">
        <ele>1412.6</ele>
        <time>2021-06-06T10:52:24Z</time>
      </trkpt>
      <trkpt lat="44.25938" lon="5.55708">
        <ele>1415.5</ele>
        <time>2021-06-06T10:52:42Z</time>
      </trkpt>
      <trkpt lat="44.25941" lon="5.55714">
        <ele>1417.4</ele>
        <time>2021-06-06T10:53:00Z</time>
      </trkpt>
      <trkpt lat="44.25946" lon="5.55726">
        <ele>1420.7</ele>
        <time>2021-06-06T10:53:30Z</time>
      </trkpt>
      <trkpt lat="44.25945" lon="5.5574">
        <ele>1422.6</ele>
        <time>2021-06-06T10:53:46Z</time>
      </trkpt>
      <trkpt lat="44.25946" lon="5.55758">
        <ele>1425.3</ele>
        <time>2021-06-06T10:54:05Z</time>
      </trkpt>
      <trkpt lat="44.25947" lon="5.55761">
        <ele>1425.8</ele>
        <time>2021-06-06T10:54:28Z</time>
      </trkpt>
      <trkpt lat="44.25949" lon="5.55769">
        <ele>1427</ele>
        <time>2021-06-06T10:54:52Z</time>
      </trkpt>
      <trkpt lat="44.25947" lon="5.55769">
        <ele>1426.9</ele>
        <time>2021-06-06T10:55:43Z</time>
      </trkpt>
      <trkpt lat="44.25949" lon="5.55777">
        <ele>1428.1</ele>
        <time>2021-06-06T10:56:42Z</time>
      </trkpt>
      <trkpt lat="44.25951" lon="5.55784">
        <ele>1428.8</ele>
        <time>2021-06-06T10:57:02Z</time>
      </trkpt>
      <trkpt lat="44.25953" lon="5.55786">
        <ele>1429</ele>
        <time>2021-06-06T10:57:36Z</time>
      </trkpt>
      <trkpt lat="44.25953" lon="5.55787">
        <ele>1429.1</ele>
        <time>2021-06-06T10:58:15Z</time>
      </trkpt>
      <trkpt lat="44.25953" lon="5.55795">
        <ele>1429.8</ele>
        <time>2021-06-06T10:58:43Z</time>
      </trkpt>
      <trkpt lat="44.2595" lon="5.55813">
        <ele>1431.3</ele>
        <time>2021-06-06T10:59:00Z</time>
      </trkpt>
      <trkpt lat="44.2595" lon="5.55842">
        <ele>1433.1</ele>
        <time>2021-06-06T10:59:21Z</time>
      </trkpt>
      <trkpt lat="44.25952" lon="5.55869">
        <ele>1434</ele>
        <time>2021-06-06T10:59:40Z</time>
      </trkpt>
      <trkpt lat="44.25953" lon="5.55882">
        <ele>1434.4</ele>
        <time>2021-06-06T10:59:56Z</time>
      </trkpt>
      <trkpt lat="44.25953" lon="5.559">
        <ele>1435.5</ele>
        <time>2021-06-06T11:00:14Z</time>
      </trkpt>
      <trkpt lat="44.25953" lon="5.55908">
        <ele>1436.1</ele>
        <time>2021-06-06T11:00:36Z</time>
      </trkpt>
      <trkpt lat="44.25954" lon="5.55917">
        <ele>1436.7</ele>
        <time>2021-06-06T11:00:43Z</time>
      </trkpt>
      <trkpt lat="44.25953" lon="5.55932">
        <ele>1437.8</ele>
        <time>2021-06-06T11:01:02Z</time>
      </trkpt>
      <trkpt lat="44.25955" lon="5.55958">
        <ele>1438.8</ele>
        <time>2021-06-06T11:01:22Z</time>
      </trkpt>
      <trkpt lat="44.25958" lon="5.55985">
        <ele>1438.5</ele>
        <time>2021-06-06T11:01:43Z</time>
      </trkpt>
      <trkpt lat="44.25959" lon="5.5601">
        <ele>1437.5</ele>
        <time>2021-06-06T11:02:02Z</time>
      </trkpt>
      <trkpt lat="44.25961" lon="5.56053">
        <ele>1435.7</ele>
        <time>2021-06-06T11:02:33Z</time>
      </trkpt>
      <trkpt lat="44.25962" lon="5.56073">
        <ele>1436.2</ele>
        <time>2021-06-06T11:02:51Z</time>
      </trkpt>
      <trkpt lat="44.25961" lon="5.56103">
        <ele>1437.2</ele>
        <time>2021-06-06T11:03:12Z</time>
      </trkpt>
      <trkpt lat="44.25963" lon="5.56134">
        <ele>1439.7</ele>
        <time>2021-06-06T11:03:33Z</time>
      </trkpt>
      <trkpt lat="44.25963" lon="5.5615">
        <ele>1440.7</ele>
        <time>2021-06-06T11:03:53Z</time>
      </trkpt>
      <trkpt lat="44.25963" lon="5.56159">
        <ele>1441.2</ele>
        <time>2021-06-06T11:04:24Z</time>
      </trkpt>
      <trkpt lat="44.25962" lon="5.56161">
        <ele>1441.1</ele>
        <time>2021-06-06T11:04:26Z</time>
      </trkpt>
      <trkpt lat="44.25961" lon="5.56164">
        <ele>1441</ele>
        <time>2021-06-06T11:04:29Z</time>
      </trkpt>
      <trkpt lat="44.25962" lon="5.56195">
        <ele>1442.4</ele>
        <time>2021-06-06T11:04:51Z</time>
      </trkpt>
      <trkpt lat="44.25963" lon="5.56202">
        <ele>1442.8</ele>
        <time>2021-06-06T11:05:10Z</time>
      </trkpt>
      <trkpt lat="44.25962" lon="5.56223">
        <ele>1442.8</ele>
        <time>2021-06-06T11:05:35Z</time>
      </trkpt>
      <trkpt lat="44.25958" lon="5.56249">
        <ele>1442</ele>
        <time>2021-06-06T11:05:59Z</time>
      </trkpt>
      <trkpt lat="44.25953" lon="5.56274">
        <ele>1440.5</ele>
        <time>2021-06-06T11:06:21Z</time>
      </trkpt>
      <trkpt lat="44.25948" lon="5.56307">
        <ele>1439.7</ele>
        <time>2021-06-06T11:06:44Z</time>
      </trkpt>
      <trkpt lat="44.25941" lon="5.56338">
        <ele>1437.1</ele>
        <time>2021-06-06T11:07:07Z</time>
      </trkpt>
      <trkpt lat="44.25939" lon="5.56365">
        <ele>1438.3</ele>
        <time>2021-06-06T11:07:28Z</time>
      </trkpt>
      <trkpt lat="44.25938" lon="5.56388">
        <ele>1442.7</ele>
      </trkpt>
      <trkpt lat="44.25942" lon="5.56405">
        <ele>1446.8</ele>
      </trkpt>
      <trkpt lat="44.25944" lon="5.56417">
        <ele>1449</ele>
        <time>2021-06-06T12:18:02Z</time>
      </trkpt>
      <trkpt lat="44.25945" lon="5.56435">
        <ele>1453</ele>
        <time>2021-06-06T12:18:23Z</time>
      </trkpt>
      <trkpt lat="44.25945" lon="5.56453">
        <ele>1456.8</ele>
        <time>2021-06-06T12:18:46Z</time>
      </trkpt>
      <trkpt lat="44.25944" lon="5.56457">
        <ele>1457.6</ele>
        <time>2021-06-06T12:19:07Z</time>
      </trkpt>
      <trkpt lat="44.25947" lon="5.56472">
        <ele>1461</ele>
        <time>2021-06-06T12:19:27Z</time>
      </trkpt>
      <trkpt lat="44.25947" lon="5.56484">
        <ele>1463.2</ele>
        <time>2021-06-06T12:19:49Z</time>
      </trkpt>
      <trkpt lat="44.25948" lon="5.565">
        <ele>1466.1</ele>
        <time>2021-06-06T12:20:10Z</time>
      </trkpt>
      <trkpt lat="44.25948" lon="5.56507">
        <ele>1467.4</ele>
        <time>2021-06-06T12:20:28Z</time>
      </trkpt>
      <trkpt lat="44.2595" lon="5.56517">
        <ele>1469.4</ele>
        <time>2021-06-06T12:20:50Z</time>
      </trkpt>
      <trkpt lat="44.25951" lon="5.56532">
        <ele>1472.2</ele>
        <time>2021-06-06T12:21:09Z</time>
      </trkpt>
      <trkpt lat="44.25951" lon="5.56539">
        <ele>1473.5</ele>
        <time>2021-06-06T12:21:34Z</time>
      </trkpt>
      <trkpt lat="44.2595" lon="5.56549">
        <ele>1475.2</ele>
        <time>2021-06-06T12:22:23Z</time>
      </trkpt>
      <trkpt lat="44.25949" lon="5.56552">
        <ele>1475.7</ele>
        <time>2021-06-06T12:22:48Z</time>
      </trkpt>
      <trkpt lat="44.25948" lon="5.56562">
        <ele>1477.9</ele>
        <time>2021-06-06T12:23:05Z</time>
      </trkpt>
      <trkpt lat="44.25948" lon="5.56569">
        <ele>1479.6</ele>
        <time>2021-06-06T12:23:30Z</time>
      </trkpt>
      <trkpt lat="44.2595" lon="5.56568">
        <ele>1479.5</ele>
        <time>2021-06-06T12:24:21Z</time>
      </trkpt>
      <trkpt lat="44.25949" lon="5.56577">
        <ele>1481.7</ele>
        <time>2021-06-06T12:24:43Z</time>
      </trkpt>
      <trkpt lat="44.25949" lon="5.56589">
        <ele>1484.4</ele>
        <time>2021-06-06T12:25:07Z</time>
      </trkpt>
      <trkpt lat="44.25952" lon="5.56602">
        <ele>1487.1</ele>
        <time>2021-06-06T12:25:26Z</time>
      </trkpt>
      <trkpt lat="44.25955" lon="5.56617">
        <ele>1490.3</ele>
        <time>2021-06-06T12:25:45Z</time>
      </trkpt>
      <trkpt lat="44.25957" lon="5.56629">
        <ele>1492.9</ele>
        <time>2021-06-06T12:26:01Z</time>
      </trkpt>
      <trkpt lat="44.25959" lon="5.5664">
        <ele>1495.3</ele>
        <time>2021-06-06T12:26:26Z</time>
      </trkpt>
      <trkpt lat="44.25958" lon="5.56643">
        <ele>1495.7</ele>
        <time>2021-06-06T12:26:47Z</time>
      </trkpt>
      <trkpt lat="44.25958" lon="5.56655">
        <ele>1497.9</ele>
        <time>2021-06-06T12:27:02Z</time>
      </trkpt>
      <trkpt lat="44.25958" lon="5.56671">
        <ele>1500.8</ele>
        <time>2021-06-06T12:27:20Z</time>
      </trkpt>
      <trkpt lat="44.25959" lon="5.56676">
        <ele>1501.9</ele>
        <time>2021-06-06T12:27:36Z</time>
      </trkpt>
      <trkpt lat="44.25961" lon="5.56688">
        <ele>1504.5</ele>
        <time>2021-06-06T12:27:57Z</time>
      </trkpt>
      <trkpt lat="44.25962" lon="5.56703">
        <ele>1507.2</ele>
        <time>2021-06-06T12:28:13Z</time>
      </trkpt>
      <trkpt lat="44.25961" lon="5.56718">
        <ele>1509.5</ele>
        <time>2021-06-06T12:28:31Z</time>
      </trkpt>
      <trkpt lat="44.25959" lon="5.56734">
        <ele>1511.7</ele>
        <time>2021-06-06T12:28:48Z</time>
      </trkpt>
      <trkpt lat="44.25955" lon="5.56751">
        <ele>1513.9</ele>
        <time>2021-06-06T12:29:08Z</time>
      </trkpt>
      <trkpt lat="44.25951" lon="5.56769">
        <ele>1516.4</ele>
        <time>2021-06-06T12:29:26Z</time>
      </trkpt>
      <trkpt lat="44.25946" lon="5.56792">
        <ele>1518.9</ele>
        <time>2021-06-06T12:29:47Z</time>
      </trkpt>
      <trkpt lat="44.25941" lon="5.56809">
        <ele>1519.8</ele>
        <time>2021-06-06T12:30:04Z</time>
      </trkpt>
      <trkpt lat="44.25937" lon="5.56826">
        <ele>1520.3</ele>
        <time>2021-06-06T12:30:23Z</time>
      </trkpt>
      <trkpt lat="44.25932" lon="5.56827">
        <ele>1520.1</ele>
        <time>2021-06-06T12:30:46Z</time>
      </trkpt>
      <trkpt lat="44.25931" lon="5.56827">
        <ele>1520.1</ele>
        <time>2021-06-06T12:31:10Z</time>
      </trkpt>
      <trkpt lat="44.25929" lon="5.56828">
        <ele>1520</ele>
        <time>2021-06-06T12:31:36Z</time>
      </trkpt>
      <trkpt lat="44.25931" lon="5.56826">
        <ele>1520</ele>
        <time>2021-06-06T12:32:02Z</time>
      </trkpt>
      <trkpt lat="44.2593" lon="5.5683">
        <ele>1520.2</ele>
        <time>2021-06-06T12:32:08Z</time>
      </trkpt>
      <trkpt lat="44.2593" lon="5.56837">
        <ele>1520.5</ele>
        <time>2021-06-06T12:32:12Z</time>
      </trkpt>
      <trkpt lat="44.25925" lon="5.56867">
        <ele>1520.8</ele>
        <time>2021-06-06T12:32:35Z</time>
      </trkpt>
      <trkpt lat="44.25922" lon="5.56895">
        <ele>1521.4</ele>
        <time>2021-06-06T12:32:53Z</time>
      </trkpt>
      <trkpt lat="44.25916" lon="5.56916">
        <ele>1521.8</ele>
        <time>2021-06-06T12:33:10Z</time>
      </trkpt>
      <trkpt lat="44.25909" lon="5.56937">
        <ele>1519.8</ele>
        <time>2021-06-06T12:33:30Z</time>
      </trkpt>
      <trkpt lat="44.25905" lon="5.5695">
        <ele>1517.9</ele>
        <time>2021-06-06T12:33:47Z</time>
      </trkpt>
      <trkpt lat="44.25904" lon="5.56949">
        <ele>1517.7</ele>
        <time>2021-06-06T12:35:05Z</time>
      </trkpt>
      <trkpt lat="44.25903" lon="5.56949">
        <ele>1517.4</ele>
        <time>2021-06-06T12:35:50Z</time>
      </trkpt>
      <trkpt lat="44.25901" lon="5.5695">
        <ele>1516.6</ele>
        <time>2021-06-06T12:37:11Z</time>
      </trkpt>
      <trkpt lat="44.25901" lon="5.56948">
        <ele>1516.9</ele>
        <time>2021-06-06T12:37:40Z</time>
      </trkpt>
      <trkpt lat="44.25902" lon="5.56949">
        <ele>1517.1</ele>
        <time>2021-06-06T12:38:04Z</time>
      </trkpt>
      <trkpt lat="44.25903" lon="5.56949">
        <ele>1517.4</ele>
        <time>2021-06-06T12:38:26Z</time>
      </trkpt>
      <trkpt lat="44.25903" lon="5.56951">
        <ele>1517.1</ele>
        <time>2021-06-06T12:39:17Z</time>
      </trkpt>
      <trkpt lat="44.25904" lon="5.56952">
        <ele>1517.3</ele>
        <time>2021-06-06T12:39:49Z</time>
      </trkpt>
      <trkpt lat="44.25912" lon="5.56964">
        <ele>1518.8</ele>
        <time>2021-06-06T12:40:10Z</time>
      </trkpt>
      <trkpt lat="44.25915" lon="5.56972">
        <ele>1519.3</ele>
        <time>2021-06-06T12:40:17Z</time>
      </trkpt>
      <trkpt lat="44.25923" lon="5.57006">
        <ele>1515.4</ele>
        <time>2021-06-06T12:40:42Z</time>
      </trkpt>
      <trkpt lat="44.25925" lon="5.57035">
        <ele>1514.4</ele>
        <time>2021-06-06T12:41:03Z</time>
      </trkpt>
      <trkpt lat="44.25925" lon="5.57049">
        <ele>1513.9</ele>
        <time>2021-06-06T12:41:21Z</time>
      </trkpt>
      <trkpt lat="44.25926" lon="5.57053">
        <ele>1513.8</ele>
        <time>2021-06-06T12:41:30Z</time>
      </trkpt>
      <trkpt lat="44.25931" lon="5.57086">
        <ele>1511</ele>
        <time>2021-06-06T12:41:53Z</time>
      </trkpt>
      <trkpt lat="44.25932" lon="5.57099">
        <ele>1508.3</ele>
        <time>2021-06-06T12:42:10Z</time>
      </trkpt>
      <trkpt lat="44.25934" lon="5.57112">
        <ele>1506.2</ele>
        <time>2021-06-06T12:42:27Z</time>
      </trkpt>
      <trkpt lat="44.25937" lon="5.5712">
        <ele>1505.1</ele>
        <time>2021-06-06T12:43:06Z</time>
      </trkpt>
      <trkpt lat="44.2594" lon="5.57127">
        <ele>1504.6</ele>
        <time>2021-06-06T12:43:25Z</time>
      </trkpt>
      <trkpt lat="44.25945" lon="5.5713">
        <ele>1506.3</ele>
        <time>2021-06-06T12:44:14Z</time>
      </trkpt>
      <trkpt lat="44.25949" lon="5.57136">
        <ele>1505.6</ele>
        <time>2021-06-06T12:44:21Z</time>
      </trkpt>
      <trkpt lat="44.25955" lon="5.57144">
        <ele>1504.7</ele>
        <time>2021-06-06T12:44:29Z</time>
      </trkpt>
      <trkpt lat="44.25969" lon="5.57166">
        <ele>1504.6</ele>
        <time>2021-06-06T12:44:48Z</time>
      </trkpt>
      <trkpt lat="44.25979" lon="5.57178">
        <ele>1504.3</ele>
        <time>2021-06-06T12:45:04Z</time>
      </trkpt>
      <trkpt lat="44.25989" lon="5.57193">
        <ele>1505.1</ele>
        <time>2021-06-06T12:45:22Z</time>
      </trkpt>
      <trkpt lat="44.25998" lon="5.57211">
        <ele>1503.4</ele>
        <time>2021-06-06T12:45:40Z</time>
      </trkpt>
      <trkpt lat="44.2601" lon="5.57226">
        <ele>1503.5</ele>
        <time>2021-06-06T12:45:58Z</time>
      </trkpt>
      <trkpt lat="44.2602" lon="5.57228">
        <ele>1507.5</ele>
        <time>2021-06-06T12:46:18Z</time>
      </trkpt>
      <trkpt lat="44.26025" lon="5.5723">
        <ele>1509.2</ele>
        <time>2021-06-06T12:46:43Z</time>
      </trkpt>
      <trkpt lat="44.26032" lon="5.57241">
        <ele>1507.1</ele>
        <time>2021-06-06T12:47:00Z</time>
      </trkpt>
      <trkpt lat="44.26036" lon="5.57249">
        <ele>1505.6</ele>
        <time>2021-06-06T12:47:19Z</time>
      </trkpt>
      <trkpt lat="44.26045" lon="5.57257">
        <ele>1503.4</ele>
        <time>2021-06-06T12:47:39Z</time>
      </trkpt>
      <trkpt lat="44.26049" lon="5.57261">
        <ele>1502.1</ele>
        <time>2021-06-06T12:48:06Z</time>
      </trkpt>
      <trkpt lat="44.26049" lon="5.5726">
        <ele>1502.9</ele>
        <time>2021-06-06T12:48:52Z</time>
      </trkpt>
      <trkpt lat="44.2605" lon="5.5726">
        <ele>1503.3</ele>
        <time>2021-06-06T12:49:39Z</time>
      </trkpt>
      <trkpt lat="44.26068" lon="5.57271">
        <ele>1502.3</ele>
        <time>2021-06-06T12:50:03Z</time>
      </trkpt>
      <trkpt lat="44.26079" lon="5.57274">
        <ele>1504.8</ele>
        <time>2021-06-06T12:50:23Z</time>
      </trkpt>
      <trkpt lat="44.26092" lon="5.57273">
        <ele>1509.1</ele>
        <time>2021-06-06T12:50:42Z</time>
      </trkpt>
      <trkpt lat="44.26098" lon="5.5728">
        <ele>1507.7</ele>
        <time>2021-06-06T12:50:51Z</time>
      </trkpt>
      <trkpt lat="44.26109" lon="5.57291">
        <ele>1504.6</ele>
        <time>2021-06-06T12:51:08Z</time>
      </trkpt>
      <trkpt lat="44.2612" lon="5.57295">
        <ele>1503.6</ele>
        <time>2021-06-06T12:51:23Z</time>
      </trkpt>
      <trkpt lat="44.26134" lon="5.57294">
        <ele>1504.9</ele>
        <time>2021-06-06T12:51:44Z</time>
      </trkpt>
      <trkpt lat="44.26135" lon="5.57292">
        <ele>1505.7</ele>
        <time>2021-06-06T12:52:06Z</time>
      </trkpt>
      <trkpt lat="44.26137" lon="5.57294">
        <ele>1505.1</ele>
        <time>2021-06-06T12:52:50Z</time>
      </trkpt>
      <trkpt lat="44.26138" lon="5.57293">
        <ele>1505.5</ele>
        <time>2021-06-06T12:53:09Z</time>
      </trkpt>
      <trkpt lat="44.26138" lon="5.57294">
        <ele>1505.1</ele>
        <time>2021-06-06T12:53:53Z</time>
      </trkpt>
      <trkpt lat="44.26138" lon="5.57293">
        <ele>1505.5</ele>
        <time>2021-06-06T12:54:33Z</time>
      </trkpt>
      <trkpt lat="44.26139" lon="5.57289">
        <ele>1506.9</ele>
        <time>2021-06-06T12:54:54Z</time>
      </trkpt>
      <trkpt lat="44.26144" lon="5.57284">
        <ele>1505.6</ele>
        <time>2021-06-06T12:55:08Z</time>
      </trkpt>
      <trkpt lat="44.26159" lon="5.5727">
        <ele>1503.4</ele>
        <time>2021-06-06T12:55:29Z</time>
      </trkpt>
      <trkpt lat="44.26169" lon="5.5726">
        <ele>1503.9</ele>
        <time>2021-06-06T12:55:46Z</time>
      </trkpt>
      <trkpt lat="44.26171" lon="5.57258">
        <ele>1504</ele>
        <time>2021-06-06T12:55:49Z</time>
      </trkpt>
      <trkpt lat="44.26182" lon="5.57256">
        <ele>1500.3</ele>
        <time>2021-06-06T12:56:11Z</time>
      </trkpt>
      <trkpt lat="44.26194" lon="5.5725">
        <ele>1499.2</ele>
        <time>2021-06-06T12:56:35Z</time>
      </trkpt>
      <trkpt lat="44.262" lon="5.57246">
        <ele>1497.2</ele>
        <time>2021-06-06T12:56:44Z</time>
      </trkpt>
      <trkpt lat="44.2621" lon="5.57238">
        <ele>1495.1</ele>
        <time>2021-06-06T12:57:01Z</time>
      </trkpt>
      <trkpt lat="44.26214" lon="5.57237">
        <ele>1493.5</ele>
        <time>2021-06-06T12:57:17Z</time>
      </trkpt>
      <trkpt lat="44.26215" lon="5.57235">
        <ele>1494</ele>
        <time>2021-06-06T12:57:51Z</time>
      </trkpt>
      <trkpt lat="44.26215" lon="5.57234">
        <ele>1494.6</ele>
        <time>2021-06-06T12:58:48Z</time>
      </trkpt>
      <trkpt lat="44.26218" lon="5.57231">
        <ele>1494.7</ele>
        <time>2021-06-06T12:59:04Z</time>
      </trkpt>
      <trkpt lat="44.26222" lon="5.57228">
        <ele>1494.6</ele>
        <time>2021-06-06T12:59:21Z</time>
      </trkpt>
      <trkpt lat="44.26227" lon="5.57218">
        <ele>1496.4</ele>
        <time>2021-06-06T12:59:44Z</time>
      </trkpt>
      <trkpt lat="44.2624" lon="5.57206">
        <ele>1494</ele>
        <time>2021-06-06T13:00:04Z</time>
      </trkpt>
      <trkpt lat="44.26243" lon="5.57203">
        <ele>1493.9</ele>
        <time>2021-06-06T13:00:10Z</time>
      </trkpt>
      <trkpt lat="44.26252" lon="5.57192">
        <ele>1494.8</ele>
        <time>2021-06-06T13:00:27Z</time>
      </trkpt>
      <trkpt lat="44.26261" lon="5.57187">
        <ele>1492.7</ele>
        <time>2021-06-06T13:00:40Z</time>
      </trkpt>
      <trkpt lat="44.26273" lon="5.5718">
        <ele>1490.9</ele>
        <time>2021-06-06T13:00:56Z</time>
      </trkpt>
      <trkpt lat="44.26282" lon="5.57175">
        <ele>1489.7</ele>
        <time>2021-06-06T13:01:07Z</time>
      </trkpt>
      <trkpt lat="44.26307" lon="5.57156">
        <ele>1488.7</ele>
        <time>2021-06-06T13:01:32Z</time>
      </trkpt>
      <trkpt lat="44.2632" lon="5.57146">
        <ele>1489.9</ele>
        <time>2021-06-06T13:01:48Z</time>
      </trkpt>
      <trkpt lat="44.26333" lon="5.57133">
        <ele>1494.8</ele>
        <time>2021-06-06T13:02:08Z</time>
      </trkpt>
      <trkpt lat="44.26337" lon="5.57127">
        <ele>1496.3</ele>
        <time>2021-06-06T13:02:21Z</time>
      </trkpt>
      <trkpt lat="44.26343" lon="5.57122">
        <ele>1497.1</ele>
        <time>2021-06-06T13:02:37Z</time>
      </trkpt>
      <trkpt lat="44.26354" lon="5.57115">
        <ele>1499.2</ele>
        <time>2021-06-06T13:02:55Z</time>
      </trkpt>
      <trkpt lat="44.26357" lon="5.57114">
        <ele>1499.4</ele>
        <time>2021-06-06T13:03:15Z</time>
      </trkpt>
      <trkpt lat="44.26361" lon="5.5711">
        <ele>1501.4</ele>
        <time>2021-06-06T13:04:25Z</time>
      </trkpt>
      <trkpt lat="44.26377" lon="5.57101">
        <ele>1495.7</ele>
        <time>2021-06-06T13:04:44Z</time>
      </trkpt>
      <trkpt lat="44.2638" lon="5.57102">
        <ele>1493.5</ele>
        <time>2021-06-06T13:04:59Z</time>
      </trkpt>
      <trkpt lat="44.26382" lon="5.57098">
        <ele>1494.9</ele>
        <time>2021-06-06T13:05:51Z</time>
      </trkpt>
      <trkpt lat="44.26383" lon="5.57096">
        <ele>1495.6</ele>
        <time>2021-06-06T13:06:15Z</time>
      </trkpt>
      <trkpt lat="44.26386" lon="5.5709">
        <ele>1498.3</ele>
        <time>2021-06-06T13:06:35Z</time>
      </trkpt>
      <trkpt lat="44.26392" lon="5.57088">
        <ele>1497.2</ele>
        <time>2021-06-06T13:07:30Z</time>
      </trkpt>
      <trkpt lat="44.26395" lon="5.57088">
        <ele>1495.7</ele>
        <time>2021-06-06T13:07:55Z</time>
      </trkpt>
      <trkpt lat="44.26394" lon="5.57079">
        <ele>1501.6</ele>
        <time>2021-06-06T13:09:12Z</time>
      </trkpt>
      <trkpt lat="44.26402" lon="5.5706">
        <ele>1508.7</ele>
        <time>2021-06-06T13:09:32Z</time>
      </trkpt>
      <trkpt lat="44.26418" lon="5.57054">
        <ele>1509.9</ele>
        <time>2021-06-06T13:09:50Z</time>
      </trkpt>
      <trkpt lat="44.26419" lon="5.57054">
        <ele>1509.8</ele>
        <time>2021-06-06T13:09:51Z</time>
      </trkpt>
      <trkpt lat="44.26434" lon="5.57059">
        <ele>1504.2</ele>
        <time>2021-06-06T13:10:09Z</time>
      </trkpt>
      <trkpt lat="44.26438" lon="5.57061">
        <ele>1501.8</ele>
        <time>2021-06-06T13:10:30Z</time>
      </trkpt>
      <trkpt lat="44.26434" lon="5.57057">
        <ele>1505.7</ele>
        <time>2021-06-06T13:11:00Z</time>
      </trkpt>
      <trkpt lat="44.26432" lon="5.57056">
        <ele>1506.9</ele>
        <time>2021-06-06T13:11:21Z</time>
      </trkpt>
      <trkpt lat="44.26434" lon="5.57057">
        <ele>1505.7</ele>
        <time>2021-06-06T13:11:37Z</time>
      </trkpt>
      <trkpt lat="44.26442" lon="5.57053">
        <ele>1505.8</ele>
        <time>2021-06-06T13:12:11Z</time>
      </trkpt>
      <trkpt lat="44.26444" lon="5.57041">
        <ele>1507.2</ele>
        <time>2021-06-06T13:12:29Z</time>
      </trkpt>
      <trkpt lat="44.26447" lon="5.57035">
        <ele>1507.1</ele>
        <time>2021-06-06T13:12:38Z</time>
      </trkpt>
      <trkpt lat="44.26452" lon="5.57025">
        <ele>1506.6</ele>
        <time>2021-06-06T13:12:51Z</time>
      </trkpt>
      <trkpt lat="44.26458" lon="5.57015">
        <ele>1504.2</ele>
        <time>2021-06-06T13:13:05Z</time>
      </trkpt>
      <trkpt lat="44.26466" lon="5.57005">
        <ele>1501.6</ele>
        <time>2021-06-06T13:13:20Z</time>
      </trkpt>
      <trkpt lat="44.26476" lon="5.56999">
        <ele>1498.3</ele>
        <time>2021-06-06T13:13:31Z</time>
      </trkpt>
      <trkpt lat="44.26481" lon="5.56988">
        <ele>1496</ele>
        <time>2021-06-06T13:13:47Z</time>
      </trkpt>
      <trkpt lat="44.26487" lon="5.56983">
        <ele>1494</ele>
        <time>2021-06-06T13:13:59Z</time>
      </trkpt>
      <trkpt lat="44.26492" lon="5.5698">
        <ele>1492.6</ele>
        <time>2021-06-06T13:14:28Z</time>
      </trkpt>
      <trkpt lat="44.26498" lon="5.56969">
        <ele>1491.3</ele>
        <time>2021-06-06T13:14:47Z</time>
      </trkpt>
      <trkpt lat="44.26498" lon="5.56963">
        <ele>1490.8</ele>
        <time>2021-06-06T13:15:09Z</time>
      </trkpt>
      <trkpt lat="44.26501" lon="5.56956">
        <ele>1489.4</ele>
        <time>2021-06-06T13:15:28Z</time>
      </trkpt>
      <trkpt lat="44.26509" lon="5.56944">
        <ele>1485.7</ele>
        <time>2021-06-06T13:15:47Z</time>
      </trkpt>
      <trkpt lat="44.26518" lon="5.56932">
        <ele>1482.2</ele>
        <time>2021-06-06T13:16:03Z</time>
      </trkpt>
      <trkpt lat="44.26528" lon="5.56919">
        <ele>1479.8</ele>
        <time>2021-06-06T13:16:22Z</time>
      </trkpt>
      <trkpt lat="44.26535" lon="5.56912">
        <ele>1477.2</ele>
        <time>2021-06-06T13:16:39Z</time>
      </trkpt>
      <trkpt lat="44.26544" lon="5.56904">
        <ele>1474.4</ele>
        <time>2021-06-06T13:16:57Z</time>
      </trkpt>
      <trkpt lat="44.26555" lon="5.5689">
        <ele>1473</ele>
        <time>2021-06-06T13:17:16Z</time>
      </trkpt>
      <trkpt lat="44.26563" lon="5.56879">
        <ele>1469.1</ele>
        <time>2021-06-06T13:17:32Z</time>
      </trkpt>
      <trkpt lat="44.26576" lon="5.56866">
        <ele>1465.7</ele>
        <time>2021-06-06T13:17:51Z</time>
      </trkpt>
      <trkpt lat="44.26586" lon="5.56852">
        <ele>1463</ele>
        <time>2021-06-06T13:18:08Z</time>
      </trkpt>
      <trkpt lat="44.26597" lon="5.56839">
        <ele>1459.3</ele>
        <time>2021-06-06T13:18:26Z</time>
      </trkpt>
      <trkpt lat="44.26602" lon="5.56834">
        <ele>1458.6</ele>
        <time>2021-06-06T13:18:45Z</time>
      </trkpt>
      <trkpt lat="44.2661" lon="5.56823">
        <ele>1456.8</ele>
        <time>2021-06-06T13:19:05Z</time>
      </trkpt>
      <trkpt lat="44.26621" lon="5.56811">
        <ele>1453.9</ele>
        <time>2021-06-06T13:19:24Z</time>
      </trkpt>
      <trkpt lat="44.26632" lon="5.56801">
        <ele>1452</ele>
        <time>2021-06-06T13:19:42Z</time>
      </trkpt>
      <trkpt lat="44.26644" lon="5.56789">
        <ele>1449</ele>
        <time>2021-06-06T13:19:59Z</time>
      </trkpt>
      <trkpt lat="44.26656" lon="5.56776">
        <ele>1446.8</ele>
        <time>2021-06-06T13:20:18Z</time>
      </trkpt>
      <trkpt lat="44.26657" lon="5.56774">
        <ele>1446.6</ele>
        <time>2021-06-06T13:20:20Z</time>
      </trkpt>
      <trkpt lat="44.2667" lon="5.56763">
        <ele>1444</ele>
        <time>2021-06-06T13:20:39Z</time>
      </trkpt>
      <trkpt lat="44.26684" lon="5.56752">
        <ele>1441</ele>
        <time>2021-06-06T13:20:59Z</time>
      </trkpt>
      <trkpt lat="44.26698" lon="5.56742">
        <ele>1437.4</ele>
        <time>2021-06-06T13:21:17Z</time>
      </trkpt>
      <trkpt lat="44.26713" lon="5.56732">
        <ele>1433.6</ele>
        <time>2021-06-06T13:21:36Z</time>
      </trkpt>
      <trkpt lat="44.26727" lon="5.5672">
        <ele>1431.5</ele>
        <time>2021-06-06T13:21:53Z</time>
      </trkpt>
      <trkpt lat="44.26744" lon="5.56704">
        <ele>1428.9</ele>
        <time>2021-06-06T13:22:13Z</time>
      </trkpt>
      <trkpt lat="44.2676" lon="5.5669">
        <ele>1427.8</ele>
        <time>2021-06-06T13:22:32Z</time>
      </trkpt>
      <trkpt lat="44.26763" lon="5.56688">
        <ele>1427.3</ele>
        <time>2021-06-06T13:22:50Z</time>
      </trkpt>
      <trkpt lat="44.26769" lon="5.56678">
        <ele>1427</ele>
        <time>2021-06-06T13:23:10Z</time>
      </trkpt>
      <trkpt lat="44.26789" lon="5.56657">
        <ele>1425.2</ele>
        <time>2021-06-06T13:23:34Z</time>
      </trkpt>
      <trkpt lat="44.26795" lon="5.56655">
        <ele>1424.4</ele>
        <time>2021-06-06T13:23:41Z</time>
      </trkpt>
      <trkpt lat="44.26811" lon="5.56642">
        <ele>1423.4</ele>
        <time>2021-06-06T13:24:01Z</time>
      </trkpt>
      <trkpt lat="44.26827" lon="5.56626">
        <ele>1421.8</ele>
        <time>2021-06-06T13:24:23Z</time>
      </trkpt>
      <trkpt lat="44.26844" lon="5.56605">
        <ele>1421.7</ele>
        <time>2021-06-06T13:24:43Z</time>
      </trkpt>
      <trkpt lat="44.2686" lon="5.56588">
        <ele>1422.9</ele>
        <time>2021-06-06T13:25:02Z</time>
      </trkpt>
      <trkpt lat="44.26875" lon="5.56574">
        <ele>1421.3</ele>
        <time>2021-06-06T13:25:18Z</time>
      </trkpt>
      <trkpt lat="44.26885" lon="5.56562">
        <ele>1421.8</ele>
        <time>2021-06-06T13:25:37Z</time>
      </trkpt>
      <trkpt lat="44.26896" lon="5.56547">
        <ele>1420.9</ele>
        <time>2021-06-06T13:25:55Z</time>
      </trkpt>
      <trkpt lat="44.26912" lon="5.56531">
        <ele>1420.4</ele>
        <time>2021-06-06T13:26:16Z</time>
      </trkpt>
      <trkpt lat="44.26928" lon="5.56514">
        <ele>1417.8</ele>
        <time>2021-06-06T13:26:37Z</time>
      </trkpt>
      <trkpt lat="44.26945" lon="5.56503">
        <ele>1417.4</ele>
        <time>2021-06-06T13:26:58Z</time>
      </trkpt>
      <trkpt lat="44.2695" lon="5.56494">
        <ele>1416.1</ele>
        <time>2021-06-06T13:27:17Z</time>
      </trkpt>
      <trkpt lat="44.26952" lon="5.56487">
        <ele>1415.2</ele>
        <time>2021-06-06T13:27:41Z</time>
      </trkpt>
      <trkpt lat="44.26959" lon="5.56469">
        <ele>1413.9</ele>
        <time>2021-06-06T13:28:00Z</time>
      </trkpt>
      <trkpt lat="44.26963" lon="5.5646">
        <ele>1412.6</ele>
        <time>2021-06-06T13:28:16Z</time>
      </trkpt>
      <trkpt lat="44.26955" lon="5.56449">
        <ele>1410</ele>
        <time>2021-06-06T13:28:34Z</time>
      </trkpt>
      <trkpt lat="44.26947" lon="5.56438">
        <ele>1407.1</ele>
        <time>2021-06-06T13:28:49Z</time>
      </trkpt>
      <trkpt lat="44.26944" lon="5.56421">
        <ele>1403.7</ele>
        <time>2021-06-06T13:29:06Z</time>
      </trkpt>
      <trkpt lat="44.26941" lon="5.5641">
        <ele>1401.2</ele>
        <time>2021-06-06T13:29:16Z</time>
      </trkpt>
      <trkpt lat="44.26936" lon="5.56392">
        <ele>1397</ele>
        <time>2021-06-06T13:29:31Z</time>
      </trkpt>
      <trkpt lat="44.26939" lon="5.56374">
        <ele>1394.5</ele>
        <time>2021-06-06T13:29:47Z</time>
      </trkpt>
      <trkpt lat="44.26943" lon="5.56354">
        <ele>1391.6</ele>
        <time>2021-06-06T13:30:06Z</time>
      </trkpt>
      <trkpt lat="44.26947" lon="5.5633">
        <ele>1387.5</ele>
        <time>2021-06-06T13:30:27Z</time>
      </trkpt>
      <trkpt lat="44.26952" lon="5.56304">
        <ele>1383.4</ele>
        <time>2021-06-06T13:30:48Z</time>
      </trkpt>
      <trkpt lat="44.26953" lon="5.56289">
        <ele>1380.7</ele>
        <time>2021-06-06T13:31:08Z</time>
      </trkpt>
      <trkpt lat="44.26957" lon="5.56269">
        <ele>1377.3</ele>
        <time>2021-06-06T13:31:27Z</time>
      </trkpt>
      <trkpt lat="44.26964" lon="5.56254">
        <ele>1374.9</ele>
        <time>2021-06-06T13:31:47Z</time>
      </trkpt>
      <trkpt lat="44.26969" lon="5.56238">
        <ele>1372.4</ele>
        <time>2021-06-06T13:32:05Z</time>
      </trkpt>
      <trkpt lat="44.26974" lon="5.5622">
        <ele>1369.5</ele>
        <time>2021-06-06T13:32:23Z</time>
      </trkpt>
      <trkpt lat="44.2698" lon="5.56208">
        <ele>1367.2</ele>
        <time>2021-06-06T13:32:35Z</time>
      </trkpt>
      <trkpt lat="44.26986" lon="5.56198">
        <ele>1365.1</ele>
        <time>2021-06-06T13:32:45Z</time>
      </trkpt>
      <trkpt lat="44.26987" lon="5.56173">
        <ele>1362.1</ele>
        <time>2021-06-06T13:33:07Z</time>
      </trkpt>
      <trkpt lat="44.26992" lon="5.56164">
        <ele>1360.7</ele>
        <time>2021-06-06T13:33:30Z</time>
      </trkpt>
      <trkpt lat="44.26993" lon="5.56167">
        <ele>1360.8</ele>
        <time>2021-06-06T13:33:48Z</time>
      </trkpt>
      <trkpt lat="44.26993" lon="5.56156">
        <ele>1360</ele>
        <time>2021-06-06T13:34:09Z</time>
      </trkpt>
      <trkpt lat="44.26993" lon="5.56135">
        <ele>1358.4</ele>
        <time>2021-06-06T13:34:28Z</time>
      </trkpt>
      <trkpt lat="44.26995" lon="5.56123">
        <ele>1356.9</ele>
        <time>2021-06-06T13:34:45Z</time>
      </trkpt>
      <trkpt lat="44.26997" lon="5.56121">
        <ele>1356.5</ele>
        <time>2021-06-06T13:35:05Z</time>
      </trkpt>
      <trkpt lat="44.26997" lon="5.5612">
        <ele>1356.4</ele>
        <time>2021-06-06T13:35:07Z</time>
      </trkpt>
      <trkpt lat="44.26998" lon="5.56111">
        <ele>1355.3</ele>
        <time>2021-06-06T13:35:15Z</time>
      </trkpt>
      <trkpt lat="44.27012" lon="5.56095">
        <ele>1353</ele>
        <time>2021-06-06T13:35:37Z</time>
      </trkpt>
      <trkpt lat="44.27018" lon="5.5609">
        <ele>1352.2</ele>
        <time>2021-06-06T13:35:52Z</time>
      </trkpt>
      <trkpt lat="44.27021" lon="5.56088">
        <ele>1351.8</ele>
        <time>2021-06-06T13:35:55Z</time>
      </trkpt>
      <trkpt lat="44.27023" lon="5.56087">
        <ele>1351.6</ele>
        <time>2021-06-06T13:35:57Z</time>
      </trkpt>
      <trkpt lat="44.27033" lon="5.56068">
        <ele>1349.8</ele>
        <time>2021-06-06T13:36:15Z</time>
      </trkpt>
      <trkpt lat="44.27035" lon="5.56062">
        <ele>1349.3</ele>
        <time>2021-06-06T13:36:20Z</time>
      </trkpt>
      <trkpt lat="44.27051" lon="5.56035">
        <ele>1345.9</ele>
        <time>2021-06-06T13:36:44Z</time>
      </trkpt>
      <trkpt lat="44.27066" lon="5.5602">
        <ele>1343.8</ele>
        <time>2021-06-06T13:37:02Z</time>
      </trkpt>
      <trkpt lat="44.27081" lon="5.56007">
        <ele>1341.8</ele>
        <time>2021-06-06T13:37:21Z</time>
      </trkpt>
      <trkpt lat="44.27088" lon="5.55995">
        <ele>1340.1</ele>
        <time>2021-06-06T13:37:39Z</time>
      </trkpt>
      <trkpt lat="44.27091" lon="5.55976">
        <ele>1337.3</ele>
        <time>2021-06-06T13:37:57Z</time>
      </trkpt>
      <trkpt lat="44.27098" lon="5.55957">
        <ele>1334.6</ele>
        <time>2021-06-06T13:38:13Z</time>
      </trkpt>
      <trkpt lat="44.27107" lon="5.55936">
        <ele>1331.8</ele>
        <time>2021-06-06T13:38:29Z</time>
      </trkpt>
      <trkpt lat="44.2711" lon="5.55924">
        <ele>1330.1</ele>
        <time>2021-06-06T13:38:38Z</time>
      </trkpt>
      <trkpt lat="44.27113" lon="5.55903">
        <ele>1327</ele>
        <time>2021-06-06T13:38:59Z</time>
      </trkpt>
      <trkpt lat="44.27118" lon="5.55882">
        <ele>1324</ele>
        <time>2021-06-06T13:39:16Z</time>
      </trkpt>
      <trkpt lat="44.27121" lon="5.5587">
        <ele>1322.3</ele>
        <time>2021-06-06T13:39:32Z</time>
      </trkpt>
      <trkpt lat="44.27129" lon="5.55852">
        <ele>1319.7</ele>
        <time>2021-06-06T13:39:52Z</time>
      </trkpt>
      <trkpt lat="44.27131" lon="5.55851">
        <ele>1319.5</ele>
        <time>2021-06-06T13:39:54Z</time>
      </trkpt>
      <trkpt lat="44.27139" lon="5.55834">
        <ele>1317.1</ele>
        <time>2021-06-06T13:40:15Z</time>
      </trkpt>
      <trkpt lat="44.27134" lon="5.55832">
        <ele>1316.8</ele>
        <time>2021-06-06T13:40:33Z</time>
      </trkpt>
      <trkpt lat="44.27123" lon="5.55831">
        <ele>1316.7</ele>
        <time>2021-06-06T13:40:49Z</time>
      </trkpt>
      <trkpt lat="44.27112" lon="5.55826">
        <ele>1316</ele>
        <time>2021-06-06T13:41:08Z</time>
      </trkpt>
      <trkpt lat="44.27097" lon="5.55817">
        <ele>1314.6</ele>
        <time>2021-06-06T13:41:26Z</time>
      </trkpt>
      <trkpt lat="44.27087" lon="5.55796">
        <ele>1311.7</ele>
        <time>2021-06-06T13:41:47Z</time>
      </trkpt>
      <trkpt lat="44.27086" lon="5.55788">
        <ele>1310.5</ele>
        <time>2021-06-06T13:42:04Z</time>
      </trkpt>
      <trkpt lat="44.27081" lon="5.55772">
        <ele>1308.4</ele>
        <time>2021-06-06T13:42:21Z</time>
      </trkpt>
      <trkpt lat="44.27084" lon="5.55774">
        <ele>1308.6</ele>
        <time>2021-06-06T13:42:43Z</time>
      </trkpt>
      <trkpt lat="44.27085" lon="5.55773">
        <ele>1308.6</ele>
        <time>2021-06-06T13:43:02Z</time>
      </trkpt>
      <trkpt lat="44.27089" lon="5.55775">
        <ele>1308.9</ele>
        <time>2021-06-06T13:43:26Z</time>
      </trkpt>
      <trkpt lat="44.27089" lon="5.55782">
        <ele>1309.8</ele>
        <time>2021-06-06T13:43:50Z</time>
      </trkpt>
      <trkpt lat="44.27086" lon="5.55781">
        <ele>1309.5</ele>
        <time>2021-06-06T13:44:38Z</time>
      </trkpt>
      <trkpt lat="44.27088" lon="5.55776">
        <ele>1309</ele>
        <time>2021-06-06T13:45:01Z</time>
      </trkpt>
      <trkpt lat="44.27087" lon="5.55777">
        <ele>1309.1</ele>
        <time>2021-06-06T13:46:10Z</time>
      </trkpt>
      <trkpt lat="44.27086" lon="5.55774">
        <ele>1308.7</ele>
        <time>2021-06-06T13:47:05Z</time>
      </trkpt>
      <trkpt lat="44.27086" lon="5.55776">
        <ele>1308.9</ele>
        <time>2021-06-06T13:47:42Z</time>
      </trkpt>
      <trkpt lat="44.27088" lon="5.55777">
        <ele>1309.1</ele>
        <time>2021-06-06T13:47:58Z</time>
      </trkpt>
      <trkpt lat="44.27088" lon="5.55779">
        <ele>1309.3</ele>
        <time>2021-06-06T13:48:53Z</time>
      </trkpt>
      <trkpt lat="44.2709" lon="5.55783">
        <ele>1309.9</ele>
        <time>2021-06-06T13:50:39Z</time>
      </trkpt>
      <trkpt lat="44.27087" lon="5.55778">
        <ele>1309.2</ele>
        <time>2021-06-06T13:51:45Z</time>
      </trkpt>
      <trkpt lat="44.27088" lon="5.55777">
        <ele>1309.1</ele>
        <time>2021-06-06T13:52:14Z</time>
      </trkpt>
      <trkpt lat="44.27088" lon="5.55779">
        <ele>1309.3</ele>
        <time>2021-06-06T13:53:58Z</time>
      </trkpt>
      <trkpt lat="44.27087" lon="5.55779">
        <ele>1309.3</ele>
        <time>2021-06-06T13:56:19Z</time>
      </trkpt>
      <trkpt lat="44.27086" lon="5.55777">
        <ele>1309</ele>
        <time>2021-06-06T13:56:44Z</time>
      </trkpt>
      <trkpt lat="44.27085" lon="5.55776">
        <ele>1308.9</ele>
        <time>2021-06-06T13:57:15Z</time>
      </trkpt>
      <trkpt lat="44.27086" lon="5.55775">
        <ele>1308.8</ele>
        <time>2021-06-06T13:58:18Z</time>
      </trkpt>
      <trkpt lat="44.27085" lon="5.55774">
        <ele>1308.7</ele>
        <time>2021-06-06T13:58:58Z</time>
      </trkpt>
      <trkpt lat="44.27095" lon="5.55775">
        <ele>1309.2</ele>
        <time>2021-06-06T13:59:41Z</time>
      </trkpt>
      <trkpt lat="44.27096" lon="5.55775">
        <ele>1309.2</ele>
        <time>2021-06-06T14:00:05Z</time>
      </trkpt>
      <trkpt lat="44.27103" lon="5.55775">
        <ele>1309.5</ele>
        <time>2021-06-06T14:00:13Z</time>
      </trkpt>
      <trkpt lat="44.27123" lon="5.55775">
        <ele>1309.8</ele>
        <time>2021-06-06T14:00:31Z</time>
      </trkpt>
      <trkpt lat="44.27146" lon="5.55763">
        <ele>1308.3</ele>
        <time>2021-06-06T14:00:55Z</time>
      </trkpt>
      <trkpt lat="44.27162" lon="5.55741">
        <ele>1305.2</ele>
        <time>2021-06-06T14:01:15Z</time>
      </trkpt>
      <trkpt lat="44.27167" lon="5.55735">
        <ele>1304.4</ele>
        <time>2021-06-06T14:01:23Z</time>
      </trkpt>
      <trkpt lat="44.27181" lon="5.55718">
        <ele>1302.1</ele>
        <time>2021-06-06T14:01:42Z</time>
      </trkpt>
      <trkpt lat="44.27191" lon="5.55695">
        <ele>1300</ele>
        <time>2021-06-06T14:01:59Z</time>
      </trkpt>
      <trkpt lat="44.27197" lon="5.55684">
        <ele>1299</ele>
        <time>2021-06-06T14:02:09Z</time>
      </trkpt>
      <trkpt lat="44.27213" lon="5.55663">
        <ele>1297.3</ele>
        <time>2021-06-06T14:02:28Z</time>
      </trkpt>
      <trkpt lat="44.27233" lon="5.55645">
        <ele>1296.4</ele>
        <time>2021-06-06T14:02:48Z</time>
      </trkpt>
      <trkpt lat="44.27238" lon="5.55614">
        <ele>1293.4</ele>
        <time>2021-06-06T14:03:09Z</time>
      </trkpt>
      <trkpt lat="44.27243" lon="5.55582">
        <ele>1289.5</ele>
        <time>2021-06-06T14:03:32Z</time>
      </trkpt>
      <trkpt lat="44.27254" lon="5.5556">
        <ele>1286.1</ele>
        <time>2021-06-06T14:03:51Z</time>
      </trkpt>
      <trkpt lat="44.27266" lon="5.55532">
        <ele>1283.4</ele>
        <time>2021-06-06T14:04:13Z</time>
      </trkpt>
      <trkpt lat="44.2727" lon="5.55511">
        <ele>1283</ele>
        <time>2021-06-06T14:04:33Z</time>
      </trkpt>
      <trkpt lat="44.27269" lon="5.55516">
        <ele>1283</ele>
        <time>2021-06-06T14:04:58Z</time>
      </trkpt>
      <trkpt lat="44.2727" lon="5.55513">
        <ele>1283.1</ele>
        <time>2021-06-06T14:05:06Z</time>
      </trkpt>
      <trkpt lat="44.27273" lon="5.55498">
        <ele>1283.1</ele>
        <time>2021-06-06T14:05:19Z</time>
      </trkpt>
      <trkpt lat="44.27282" lon="5.55477">
        <ele>1284.3</ele>
        <time>2021-06-06T14:05:36Z</time>
      </trkpt>
      <trkpt lat="44.2729" lon="5.55459">
        <ele>1284.4</ele>
        <time>2021-06-06T14:05:49Z</time>
      </trkpt>
      <trkpt lat="44.27301" lon="5.5544">
        <ele>1284.2</ele>
        <time>2021-06-06T14:06:06Z</time>
      </trkpt>
      <trkpt lat="44.27322" lon="5.55423">
        <ele>1285.4</ele>
        <time>2021-06-06T14:06:25Z</time>
      </trkpt>
      <trkpt lat="44.2733" lon="5.55414">
        <ele>1284.7</ele>
        <time>2021-06-06T14:06:36Z</time>
      </trkpt>
      <trkpt lat="44.27337" lon="5.55407">
        <ele>1283.9</ele>
        <time>2021-06-06T14:06:44Z</time>
      </trkpt>
      <trkpt lat="44.27355" lon="5.55389">
        <ele>1281.9</ele>
        <time>2021-06-06T14:07:02Z</time>
      </trkpt>
      <trkpt lat="44.27368" lon="5.55376">
        <ele>1281.1</ele>
        <time>2021-06-06T14:07:19Z</time>
      </trkpt>
      <trkpt lat="44.27376" lon="5.55366">
        <ele>1279.8</ele>
        <time>2021-06-06T14:07:36Z</time>
      </trkpt>
      <trkpt lat="44.27383" lon="5.55356">
        <ele>1277.9</ele>
        <time>2021-06-06T14:07:47Z</time>
      </trkpt>
      <trkpt lat="44.27394" lon="5.5534">
        <ele>1274.1</ele>
        <time>2021-06-06T14:08:04Z</time>
      </trkpt>
      <trkpt lat="44.27403" lon="5.55329">
        <ele>1271.3</ele>
        <time>2021-06-06T14:08:15Z</time>
      </trkpt>
      <trkpt lat="44.27415" lon="5.55316">
        <ele>1267.9</ele>
        <time>2021-06-06T14:08:31Z</time>
      </trkpt>
      <trkpt lat="44.27428" lon="5.55307">
        <ele>1265</ele>
        <time>2021-06-06T14:08:48Z</time>
      </trkpt>
      <trkpt lat="44.2743" lon="5.55307">
        <ele>1265</ele>
        <time>2021-06-06T14:08:50Z</time>
      </trkpt>
      <trkpt lat="44.27448" lon="5.55306">
        <ele>1264.1</ele>
        <time>2021-06-06T14:09:12Z</time>
      </trkpt>
      <trkpt lat="44.27468" lon="5.55305">
        <ele>1263.9</ele>
        <time>2021-06-06T14:09:33Z</time>
      </trkpt>
      <trkpt lat="44.27487" lon="5.55315">
        <ele>1267.4</ele>
        <time>2021-06-06T14:09:57Z</time>
      </trkpt>
      <trkpt lat="44.27508" lon="5.55317">
        <ele>1268.4</ele>
        <time>2021-06-06T14:10:15Z</time>
      </trkpt>
      <trkpt lat="44.27534" lon="5.55316">
        <ele>1268.6</ele>
        <time>2021-06-06T14:10:34Z</time>
      </trkpt>
      <trkpt lat="44.27546" lon="5.55314">
        <ele>1268.4</ele>
        <time>2021-06-06T14:10:45Z</time>
      </trkpt>
      <trkpt lat="44.27571" lon="5.55305">
        <ele>1266.9</ele>
        <time>2021-06-06T14:11:03Z</time>
      </trkpt>
      <trkpt lat="44.27589" lon="5.55293">
        <ele>1264.4</ele>
        <time>2021-06-06T14:11:21Z</time>
      </trkpt>
      <trkpt lat="44.27612" lon="5.55282">
        <ele>1263.3</ele>
        <time>2021-06-06T14:11:44Z</time>
      </trkpt>
      <trkpt lat="44.27629" lon="5.55275">
        <ele>1263</ele>
        <time>2021-06-06T14:12:02Z</time>
      </trkpt>
      <trkpt lat="44.27651" lon="5.55264">
        <ele>1262.7</ele>
        <time>2021-06-06T14:12:24Z</time>
      </trkpt>
      <trkpt lat="44.2767" lon="5.55259">
        <ele>1264.5</ele>
        <time>2021-06-06T14:12:43Z</time>
      </trkpt>
      <trkpt lat="44.27688" lon="5.55253">
        <ele>1265.8</ele>
        <time>2021-06-06T14:13:01Z</time>
      </trkpt>
      <trkpt lat="44.27709" lon="5.55245">
        <ele>1267</ele>
        <time>2021-06-06T14:13:23Z</time>
      </trkpt>
      <trkpt lat="44.27723" lon="5.55239">
        <ele>1267.6</ele>
        <time>2021-06-06T14:13:38Z</time>
      </trkpt>
      <trkpt lat="44.27738" lon="5.55235">
        <ele>1269.3</ele>
        <time>2021-06-06T14:13:54Z</time>
      </trkpt>
      <trkpt lat="44.27752" lon="5.55232">
        <ele>1271.2</ele>
        <time>2021-06-06T14:14:09Z</time>
      </trkpt>
      <trkpt lat="44.27768" lon="5.55224">
        <ele>1271.8</ele>
        <time>2021-06-06T14:14:28Z</time>
      </trkpt>
      <trkpt lat="44.27794" lon="5.55212">
        <ele>1272.2</ele>
        <time>2021-06-06T14:14:52Z</time>
      </trkpt>
      <trkpt lat="44.27813" lon="5.55202">
        <ele>1272</ele>
        <time>2021-06-06T14:15:11Z</time>
      </trkpt>
      <trkpt lat="44.2783" lon="5.55196">
        <ele>1272.1</ele>
        <time>2021-06-06T14:15:27Z</time>
      </trkpt>
      <trkpt lat="44.27844" lon="5.55196">
        <ele>1272.5</ele>
        <time>2021-06-06T14:15:42Z</time>
      </trkpt>
      <trkpt lat="44.2786" lon="5.55194">
        <ele>1271.9</ele>
        <time>2021-06-06T14:15:57Z</time>
      </trkpt>
      <trkpt lat="44.27878" lon="5.55192">
        <ele>1271.2</ele>
        <time>2021-06-06T14:16:13Z</time>
      </trkpt>
      <trkpt lat="44.27893" lon="5.55193">
        <ele>1271.2</ele>
        <time>2021-06-06T14:16:30Z</time>
      </trkpt>
      <trkpt lat="44.27918" lon="5.55197">
        <ele>1270.8</ele>
        <time>2021-06-06T14:16:54Z</time>
      </trkpt>
      <trkpt lat="44.2794" lon="5.55207">
        <ele>1273.2</ele>
        <time>2021-06-06T14:17:18Z</time>
      </trkpt>
      <trkpt lat="44.27962" lon="5.55215">
        <ele>1275</ele>
        <time>2021-06-06T14:17:38Z</time>
      </trkpt>
      <trkpt lat="44.2797" lon="5.55218">
        <ele>1275.6</ele>
        <time>2021-06-06T14:17:46Z</time>
      </trkpt>
      <trkpt lat="44.27978" lon="5.55221">
        <ele>1276.3</ele>
        <time>2021-06-06T14:17:53Z</time>
      </trkpt>
      <trkpt lat="44.27982" lon="5.55223">
        <ele>1277</ele>
        <time>2021-06-06T14:17:55Z</time>
      </trkpt>
      <trkpt lat="44.27996" lon="5.5523">
        <ele>1279.2</ele>
        <time>2021-06-06T14:18:13Z</time>
      </trkpt>
      <trkpt lat="44.28005" lon="5.55239">
        <ele>1282.3</ele>
        <time>2021-06-06T14:18:30Z</time>
      </trkpt>
      <trkpt lat="44.28026" lon="5.55236">
        <ele>1279.6</ele>
        <time>2021-06-06T14:18:53Z</time>
      </trkpt>
      <trkpt lat="44.2803" lon="5.55237">
        <ele>1279.6</ele>
        <time>2021-06-06T14:18:57Z</time>
      </trkpt>
      <trkpt lat="44.28046" lon="5.55243">
        <ele>1280.4</ele>
        <time>2021-06-06T14:19:14Z</time>
      </trkpt>
      <trkpt lat="44.28065" lon="5.55246">
        <ele>1279.9</ele>
        <time>2021-06-06T14:19:30Z</time>
      </trkpt>
      <trkpt lat="44.28075" lon="5.5525">
        <ele>1280.6</ele>
        <time>2021-06-06T14:19:39Z</time>
      </trkpt>
      <trkpt lat="44.28091" lon="5.55249">
        <ele>1279.1</ele>
        <time>2021-06-06T14:19:56Z</time>
      </trkpt>
      <trkpt lat="44.2812" lon="5.55256">
        <ele>1279.8</ele>
        <time>2021-06-06T14:20:20Z</time>
      </trkpt>
      <trkpt lat="44.28121" lon="5.55257">
        <ele>1280.1</ele>
        <time>2021-06-06T14:20:21Z</time>
      </trkpt>
      <trkpt lat="44.28141" lon="5.55263">
        <ele>1281.5</ele>
        <time>2021-06-06T14:20:43Z</time>
      </trkpt>
      <trkpt lat="44.28151" lon="5.55264">
        <ele>1283</ele>
        <time>2021-06-06T14:20:52Z</time>
      </trkpt>
      <trkpt lat="44.28172" lon="5.55266">
        <ele>1286.7</ele>
        <time>2021-06-06T14:21:11Z</time>
      </trkpt>
      <trkpt lat="44.28182" lon="5.55271">
        <ele>1289.7</ele>
        <time>2021-06-06T14:21:30Z</time>
      </trkpt>
      <trkpt lat="44.28188" lon="5.55281">
        <ele>1292</ele>
        <time>2021-06-06T14:21:46Z</time>
      </trkpt>
      <trkpt lat="44.28194" lon="5.5529">
        <ele>1294.2</ele>
        <time>2021-06-06T14:22:01Z</time>
      </trkpt>
      <trkpt lat="44.28196" lon="5.55306">
        <ele>1296.5</ele>
        <time>2021-06-06T14:22:20Z</time>
      </trkpt>
      <trkpt lat="44.28199" lon="5.55318">
        <ele>1299.3</ele>
        <time>2021-06-06T14:22:37Z</time>
      </trkpt>
      <trkpt lat="44.28206" lon="5.55331">
        <ele>1302.8</ele>
        <time>2021-06-06T14:22:57Z</time>
      </trkpt>
      <trkpt lat="44.28215" lon="5.55346">
        <ele>1306.8</ele>
        <time>2021-06-06T14:23:19Z</time>
      </trkpt>
      <trkpt lat="44.2822" lon="5.5536">
        <ele>1309.6</ele>
        <time>2021-06-06T14:23:36Z</time>
      </trkpt>
      <trkpt lat="44.28226" lon="5.55373">
        <ele>1311.7</ele>
        <time>2021-06-06T14:23:52Z</time>
      </trkpt>
      <trkpt lat="44.28231" lon="5.55386">
        <ele>1313.1</ele>
        <time>2021-06-06T14:24:09Z</time>
      </trkpt>
      <trkpt lat="44.28234" lon="5.55397">
        <ele>1312.9</ele>
        <time>2021-06-06T14:24:22Z</time>
      </trkpt>
      <trkpt lat="44.2824" lon="5.55409">
        <ele>1311.8</ele>
        <time>2021-06-06T14:24:40Z</time>
      </trkpt>
      <trkpt lat="44.28245" lon="5.55406">
        <ele>1311.8</ele>
        <time>2021-06-06T14:25:16Z</time>
      </trkpt>
      <trkpt lat="44.28241" lon="5.5541">
        <ele>1311.6</ele>
        <time>2021-06-06T14:25:38Z</time>
      </trkpt>
      <trkpt lat="44.2824" lon="5.55409">
        <ele>1311.8</ele>
        <time>2021-06-06T14:26:26Z</time>
      </trkpt>
      <trkpt lat="44.28246" lon="5.55408">
        <ele>1311.5</ele>
        <time>2021-06-06T14:26:44Z</time>
      </trkpt>
      <trkpt lat="44.28246" lon="5.55409">
        <ele>1311.4</ele>
        <time>2021-06-06T14:27:51Z</time>
      </trkpt>
      <trkpt lat="44.28243" lon="5.55407">
        <ele>1311.8</ele>
        <time>2021-06-06T14:28:18Z</time>
      </trkpt>
      <trkpt lat="44.28245" lon="5.55406">
        <ele>1311.8</ele>
        <time>2021-06-06T14:28:41Z</time>
      </trkpt>
      <trkpt lat="44.28248" lon="5.55401">
        <ele>1312.3</ele>
        <time>2021-06-06T14:29:11Z</time>
      </trkpt>
      <trkpt lat="44.2825" lon="5.55397">
        <ele>1312.8</ele>
        <time>2021-06-06T14:29:14Z</time>
      </trkpt>
      <trkpt lat="44.28254" lon="5.55389">
        <ele>1313.8</ele>
        <time>2021-06-06T14:29:20Z</time>
      </trkpt>
      <trkpt lat="44.28261" lon="5.55376">
        <ele>1314.6</ele>
        <time>2021-06-06T14:29:31Z</time>
      </trkpt>
      <trkpt lat="44.28264" lon="5.55358">
        <ele>1316</ele>
        <time>2021-06-06T14:29:44Z</time>
      </trkpt>
      <trkpt lat="44.28266" lon="5.55336">
        <ele>1316.3</ele>
        <time>2021-06-06T14:30:00Z</time>
      </trkpt>
      <trkpt lat="44.28272" lon="5.55317">
        <ele>1316.9</ele>
        <time>2021-06-06T14:30:14Z</time>
      </trkpt>
      <trkpt lat="44.2828" lon="5.5531">
        <ele>1318.1</ele>
        <time>2021-06-06T14:30:34Z</time>
      </trkpt>
      <trkpt lat="44.28288" lon="5.55305">
        <ele>1318.7</ele>
        <time>2021-06-06T14:30:44Z</time>
      </trkpt>
      <trkpt lat="44.28306" lon="5.55291">
        <ele>1320</ele>
        <time>2021-06-06T14:31:05Z</time>
      </trkpt>
      <trkpt lat="44.28312" lon="5.55287">
        <ele>1319.6</ele>
        <time>2021-06-06T14:31:12Z</time>
      </trkpt>
      <trkpt lat="44.28337" lon="5.55275">
        <ele>1317.6</ele>
        <time>2021-06-06T14:31:35Z</time>
      </trkpt>
      <trkpt lat="44.28356" lon="5.55267">
        <ele>1315.7</ele>
        <time>2021-06-06T14:31:54Z</time>
      </trkpt>
      <trkpt lat="44.2837" lon="5.55258">
        <ele>1313.8</ele>
        <time>2021-06-06T14:32:08Z</time>
      </trkpt>
      <trkpt lat="44.2838" lon="5.55252">
        <ele>1312.7</ele>
        <time>2021-06-06T14:32:20Z</time>
      </trkpt>
      <trkpt lat="44.28382" lon="5.55252">
        <ele>1312.6</ele>
        <time>2021-06-06T14:32:23Z</time>
      </trkpt>
      <trkpt lat="44.28387" lon="5.55248">
        <ele>1312</ele>
        <time>2021-06-06T14:32:27Z</time>
      </trkpt>
      <trkpt lat="44.28389" lon="5.55244">
        <ele>1311.6</ele>
        <time>2021-06-06T14:32:31Z</time>
      </trkpt>
      <trkpt lat="44.28399" lon="5.55233">
        <ele>1310.6</ele>
        <time>2021-06-06T14:32:43Z</time>
      </trkpt>
      <trkpt lat="44.28412" lon="5.55213">
        <ele>1309.3</ele>
        <time>2021-06-06T14:32:59Z</time>
      </trkpt>
      <trkpt lat="44.28416" lon="5.55207">
        <ele>1308.9</ele>
        <time>2021-06-06T14:33:04Z</time>
      </trkpt>
      <trkpt lat="44.28424" lon="5.55188">
        <ele>1308.2</ele>
        <time>2021-06-06T14:33:18Z</time>
      </trkpt>
      <trkpt lat="44.28425" lon="5.55183">
        <ele>1307.8</ele>
        <time>2021-06-06T14:33:21Z</time>
      </trkpt>
      <trkpt lat="44.28436" lon="5.55157">
        <ele>1306.6</ele>
        <time>2021-06-06T14:33:39Z</time>
      </trkpt>
      <trkpt lat="44.28436" lon="5.55154">
        <ele>1306.3</ele>
        <time>2021-06-06T14:33:42Z</time>
      </trkpt>
      <trkpt lat="44.28439" lon="5.55135">
        <ele>1304.3</ele>
        <time>2021-06-06T14:33:57Z</time>
      </trkpt>
      <trkpt lat="44.28438" lon="5.55133">
        <ele>1303.8</ele>
        <time>2021-06-06T14:34:06Z</time>
      </trkpt>
      <trkpt lat="44.28441" lon="5.55126">
        <ele>1303.1</ele>
        <time>2021-06-06T14:34:10Z</time>
      </trkpt>
      <trkpt lat="44.28447" lon="5.55108">
        <ele>1300.9</ele>
        <time>2021-06-06T14:34:23Z</time>
      </trkpt>
      <trkpt lat="44.28456" lon="5.55076">
        <ele>1296.2</ele>
        <time>2021-06-06T14:34:44Z</time>
      </trkpt>
      <trkpt lat="44.28462" lon="5.55052">
        <ele>1292.2</ele>
        <time>2021-06-06T14:35:01Z</time>
      </trkpt>
      <trkpt lat="44.28463" lon="5.55048">
        <ele>1291.4</ele>
        <time>2021-06-06T14:35:04Z</time>
      </trkpt>
      <trkpt lat="44.28472" lon="5.55018">
        <ele>1287.2</ele>
        <time>2021-06-06T14:35:24Z</time>
      </trkpt>
      <trkpt lat="44.28476" lon="5.55004">
        <ele>1285.8</ele>
        <time>2021-06-06T14:35:34Z</time>
      </trkpt>
      <trkpt lat="44.28479" lon="5.54997">
        <ele>1285.5</ele>
        <time>2021-06-06T14:35:39Z</time>
      </trkpt>
      <trkpt lat="44.2848" lon="5.54995">
        <ele>1285.5</ele>
        <time>2021-06-06T14:35:41Z</time>
      </trkpt>
      <trkpt lat="44.28492" lon="5.5497">
        <ele>1285.4</ele>
        <time>2021-06-06T14:36:00Z</time>
      </trkpt>
      <trkpt lat="44.28503" lon="5.54953">
        <ele>1285.8</ele>
        <time>2021-06-06T14:36:16Z</time>
      </trkpt>
      <trkpt lat="44.28511" lon="5.54941">
        <ele>1286.1</ele>
        <time>2021-06-06T14:36:32Z</time>
      </trkpt>
      <trkpt lat="44.28517" lon="5.54927">
        <ele>1286.4</ele>
        <time>2021-06-06T14:36:43Z</time>
      </trkpt>
      <trkpt lat="44.28524" lon="5.549">
        <ele>1286.5</ele>
        <time>2021-06-06T14:37:02Z</time>
      </trkpt>
      <trkpt lat="44.28524" lon="5.54885">
        <ele>1285.9</ele>
        <time>2021-06-06T14:37:13Z</time>
      </trkpt>
      <trkpt lat="44.28521" lon="5.5488">
        <ele>1285</ele>
        <time>2021-06-06T14:37:30Z</time>
      </trkpt>
      <trkpt lat="44.28521" lon="5.54881">
        <ele>1285</ele>
        <time>2021-06-06T14:37:44Z</time>
      </trkpt>
    </trkseg>
  </trk>
</gpx>